<?xml version="1.0" encoding="UTF-8" standalone="no" ?>
<gpx xmlns="http://www.topografix.com/GPX/1/1" xmlns:xsi="http://www.w3.org/2001/XMLSchema-instance" xsi:schemaLocation="http://www.topografix.com/GPX/1/1 http://www.topografix.com/GPX/1/1/gpx.xsd" version="1.1" creator="VisuGPX - https://www.visugpx.com">
  <metadata>
    <name>Belley / Colomieu7</name>
    <desc><![CDATA[Ain - Bugey.
Boucle au départ de Belley.
Passage à La Fulie, Vieugey, Pont de Thoys, Le Grangeon, Arbignieu, Bois Muset, Fontaine Valin, Les Barmettes, Col de Sansennet, Colomieu, La Craz, Bognens, Bilignin.
]]></desc>
  </metadata>
  <trk>
    <name><![CDATA[10888836-Belley / Colomieu7]]></name>
    <trkseg>
      <trkpt lat="45.758" lon="5.68932">
        <ele>281</ele>
        <time>2020-01-15T19:37:51Z</time>
      </trkpt>
      <trkpt lat="45.75828" lon="5.68875">
        <ele>280</ele>
        <time>2020-01-15T19:38:02Z</time>
      </trkpt>
      <trkpt lat="45.75837" lon="5.68863">
        <ele>280</ele>
        <time>2020-01-15T19:38:05Z</time>
      </trkpt>
      <trkpt lat="45.75762" lon="5.68804">
        <ele>279</ele>
        <time>2020-01-15T19:38:25Z</time>
      </trkpt>
      <trkpt lat="45.75706" lon="5.68767">
        <ele>281</ele>
        <time>2020-01-15T19:38:40Z</time>
      </trkpt>
      <trkpt lat="45.75686" lon="5.68758">
        <ele>282</ele>
        <time>2020-01-15T19:38:45Z</time>
      </trkpt>
      <trkpt lat="45.75642" lon="5.68713">
        <ele>284</ele>
        <time>2020-01-15T19:38:57Z</time>
      </trkpt>
      <trkpt lat="45.75598" lon="5.68662">
        <ele>286</ele>
        <time>2020-01-15T19:39:10Z</time>
      </trkpt>
      <trkpt lat="45.75591" lon="5.68648">
        <ele>287</ele>
        <time>2020-01-15T19:39:13Z</time>
      </trkpt>
      <trkpt lat="45.75557" lon="5.68515">
        <ele>289</ele>
        <time>2020-01-15T19:39:36Z</time>
      </trkpt>
      <trkpt lat="45.75551" lon="5.68474">
        <ele>289</ele>
        <time>2020-01-15T19:39:43Z</time>
      </trkpt>
      <trkpt lat="45.75558" lon="5.68437">
        <ele>289</ele>
        <time>2020-01-15T19:39:49Z</time>
      </trkpt>
      <trkpt lat="45.75563" lon="5.68392">
        <ele>288</ele>
        <time>2020-01-15T19:39:57Z</time>
      </trkpt>
      <trkpt lat="45.75569" lon="5.68378">
        <ele>288</ele>
        <time>2020-01-15T19:39:59Z</time>
      </trkpt>
      <trkpt lat="45.75578" lon="5.68375">
        <ele>287</ele>
        <time>2020-01-15T19:40:02Z</time>
      </trkpt>
      <trkpt lat="45.75581" lon="5.68367">
        <ele>287</ele>
        <time>2020-01-15T19:40:03Z</time>
      </trkpt>
      <trkpt lat="45.75573" lon="5.68343">
        <ele>287</ele>
        <time>2020-01-15T19:40:07Z</time>
      </trkpt>
      <trkpt lat="45.75603" lon="5.68167">
        <ele>289</ele>
        <time>2020-01-15T19:40:37Z</time>
      </trkpt>
      <trkpt lat="45.75572" lon="5.68147">
        <ele>289</ele>
        <time>2020-01-15T19:40:45Z</time>
      </trkpt>
      <trkpt lat="45.75518" lon="5.68102">
        <ele>291</ele>
        <time>2020-01-15T19:40:59Z</time>
      </trkpt>
      <trkpt lat="45.75499" lon="5.68074">
        <ele>292</ele>
        <time>2020-01-15T19:41:06Z</time>
      </trkpt>
      <trkpt lat="45.7549" lon="5.68046">
        <ele>291</ele>
        <time>2020-01-15T19:41:11Z</time>
      </trkpt>
      <trkpt lat="45.75499" lon="5.6798">
        <ele>290</ele>
        <time>2020-01-15T19:41:22Z</time>
      </trkpt>
      <trkpt lat="45.75485" lon="5.67947">
        <ele>290</ele>
        <time>2020-01-15T19:41:28Z</time>
      </trkpt>
      <trkpt lat="45.75408" lon="5.67852">
        <ele>290</ele>
        <time>2020-01-15T19:41:52Z</time>
      </trkpt>
      <trkpt lat="45.75385" lon="5.67818">
        <ele>290</ele>
        <time>2020-01-15T19:42:00Z</time>
      </trkpt>
      <trkpt lat="45.75338" lon="5.67746">
        <ele>289</ele>
        <time>2020-01-15T19:42:16Z</time>
      </trkpt>
      <trkpt lat="45.75318" lon="5.677">
        <ele>288</ele>
        <time>2020-01-15T19:42:24Z</time>
      </trkpt>
      <trkpt lat="45.75291" lon="5.67584">
        <ele>288</ele>
        <time>2020-01-15T19:42:44Z</time>
      </trkpt>
      <trkpt lat="45.75274" lon="5.67525">
        <ele>291</ele>
        <time>2020-01-15T19:42:55Z</time>
      </trkpt>
      <trkpt lat="45.7529" lon="5.67479">
        <ele>294</ele>
        <time>2020-01-15T19:43:03Z</time>
      </trkpt>
      <trkpt lat="45.75293" lon="5.67462">
        <ele>294</ele>
        <time>2020-01-15T19:43:06Z</time>
      </trkpt>
      <trkpt lat="45.75294" lon="5.67446">
        <ele>295</ele>
        <time>2020-01-15T19:43:09Z</time>
      </trkpt>
      <trkpt lat="45.75289" lon="5.67411">
        <ele>297</ele>
        <time>2020-01-15T19:43:14Z</time>
      </trkpt>
      <trkpt lat="45.75289" lon="5.67395">
        <ele>297</ele>
        <time>2020-01-15T19:43:17Z</time>
      </trkpt>
      <trkpt lat="45.75295" lon="5.67312">
        <ele>297</ele>
        <time>2020-01-15T19:43:31Z</time>
      </trkpt>
      <trkpt lat="45.75304" lon="5.67248">
        <ele>293</ele>
        <time>2020-01-15T19:43:41Z</time>
      </trkpt>
      <trkpt lat="45.75304" lon="5.67193">
        <ele>289</ele>
        <time>2020-01-15T19:43:50Z</time>
      </trkpt>
      <trkpt lat="45.75298" lon="5.67171">
        <ele>288</ele>
        <time>2020-01-15T19:43:54Z</time>
      </trkpt>
      <trkpt lat="45.75243" lon="5.67081">
        <ele>285</ele>
        <time>2020-01-15T19:44:14Z</time>
      </trkpt>
      <trkpt lat="45.75236" lon="5.67059">
        <ele>284</ele>
        <time>2020-01-15T19:44:17Z</time>
      </trkpt>
      <trkpt lat="45.75229" lon="5.67009">
        <ele>282</ele>
        <time>2020-01-15T19:44:26Z</time>
      </trkpt>
      <trkpt lat="45.75226" lon="5.66942">
        <ele>275</ele>
        <time>2020-01-15T19:44:37Z</time>
      </trkpt>
      <trkpt lat="45.75218" lon="5.66904">
        <ele>272</ele>
        <time>2020-01-15T19:44:43Z</time>
      </trkpt>
      <trkpt lat="45.75213" lon="5.66893">
        <ele>272</ele>
        <time>2020-01-15T19:44:45Z</time>
      </trkpt>
      <trkpt lat="45.75205" lon="5.66883">
        <ele>271</ele>
        <time>2020-01-15T19:44:48Z</time>
      </trkpt>
      <trkpt lat="45.75169" lon="5.66849">
        <ele>271</ele>
        <time>2020-01-15T19:44:58Z</time>
      </trkpt>
      <trkpt lat="45.75161" lon="5.66837">
        <ele>271</ele>
        <time>2020-01-15T19:45:01Z</time>
      </trkpt>
      <trkpt lat="45.75144" lon="5.66789">
        <ele>268</ele>
        <time>2020-01-15T19:45:09Z</time>
      </trkpt>
      <trkpt lat="45.75141" lon="5.66774">
        <ele>267</ele>
        <time>2020-01-15T19:45:12Z</time>
      </trkpt>
      <trkpt lat="45.75135" lon="5.66669">
        <ele>261</ele>
        <time>2020-01-15T19:45:29Z</time>
      </trkpt>
      <trkpt lat="45.75121" lon="5.66559">
        <ele>256</ele>
        <time>2020-01-15T19:45:47Z</time>
      </trkpt>
      <trkpt lat="45.75115" lon="5.6653">
        <ele>254</ele>
        <time>2020-01-15T19:45:52Z</time>
      </trkpt>
      <trkpt lat="45.7511" lon="5.66517">
        <ele>253</ele>
        <time>2020-01-15T19:45:55Z</time>
      </trkpt>
      <trkpt lat="45.7511" lon="5.66493">
        <ele>252</ele>
        <time>2020-01-15T19:45:59Z</time>
      </trkpt>
      <trkpt lat="45.75117" lon="5.66478">
        <ele>251</ele>
        <time>2020-01-15T19:46:01Z</time>
      </trkpt>
      <trkpt lat="45.75131" lon="5.66464">
        <ele>250</ele>
        <time>2020-01-15T19:46:05Z</time>
      </trkpt>
      <trkpt lat="45.75219" lon="5.66417">
        <ele>247</ele>
        <time>2020-01-15T19:46:27Z</time>
      </trkpt>
      <trkpt lat="45.75258" lon="5.66405">
        <ele>246</ele>
        <time>2020-01-15T19:46:37Z</time>
      </trkpt>
      <trkpt lat="45.7533" lon="5.66404">
        <ele>248</ele>
        <time>2020-01-15T19:46:54Z</time>
      </trkpt>
      <trkpt lat="45.75345" lon="5.66389">
        <ele>245</ele>
        <time>2020-01-15T19:46:58Z</time>
      </trkpt>
      <trkpt lat="45.75351" lon="5.66348">
        <ele>239</ele>
        <time>2020-01-15T19:47:05Z</time>
      </trkpt>
      <trkpt lat="45.75348" lon="5.66337">
        <ele>237</ele>
        <time>2020-01-15T19:47:07Z</time>
      </trkpt>
      <trkpt lat="45.7534" lon="5.66331">
        <ele>236</ele>
        <time>2020-01-15T19:47:09Z</time>
      </trkpt>
      <trkpt lat="45.75325" lon="5.66326">
        <ele>236</ele>
        <time>2020-01-15T19:47:12Z</time>
      </trkpt>
      <trkpt lat="45.75318" lon="5.66318">
        <ele>235</ele>
        <time>2020-01-15T19:47:14Z</time>
      </trkpt>
      <trkpt lat="45.75314" lon="5.66306">
        <ele>235</ele>
        <time>2020-01-15T19:47:17Z</time>
      </trkpt>
      <trkpt lat="45.75313" lon="5.66291">
        <ele>234</ele>
        <time>2020-01-15T19:47:19Z</time>
      </trkpt>
      <trkpt lat="45.75314" lon="5.66272">
        <ele>233</ele>
        <time>2020-01-15T19:47:22Z</time>
      </trkpt>
      <trkpt lat="45.75325" lon="5.66208">
        <ele>231</ele>
        <time>2020-01-15T19:47:33Z</time>
      </trkpt>
      <trkpt lat="45.75326" lon="5.66172">
        <ele>231</ele>
        <time>2020-01-15T19:47:39Z</time>
      </trkpt>
      <trkpt lat="45.7533" lon="5.66143">
        <ele>231</ele>
        <time>2020-01-15T19:47:44Z</time>
      </trkpt>
      <trkpt lat="45.75099" lon="5.66054">
        <ele>228</ele>
        <time>2020-01-15T19:48:39Z</time>
      </trkpt>
      <trkpt lat="45.7508" lon="5.66053">
        <ele>228</ele>
        <time>2020-01-15T19:48:44Z</time>
      </trkpt>
      <trkpt lat="45.75037" lon="5.66065">
        <ele>228</ele>
        <time>2020-01-15T19:48:54Z</time>
      </trkpt>
      <trkpt lat="45.74945" lon="5.66122">
        <ele>229</ele>
        <time>2020-01-15T19:49:17Z</time>
      </trkpt>
      <trkpt lat="45.7487" lon="5.66148">
        <ele>229</ele>
        <time>2020-01-15T19:49:35Z</time>
      </trkpt>
      <trkpt lat="45.74841" lon="5.66166">
        <ele>230</ele>
        <time>2020-01-15T19:49:43Z</time>
      </trkpt>
      <trkpt lat="45.74789" lon="5.66189">
        <ele>230</ele>
        <time>2020-01-15T19:49:56Z</time>
      </trkpt>
      <trkpt lat="45.74759" lon="5.66207">
        <ele>230</ele>
        <time>2020-01-15T19:50:03Z</time>
      </trkpt>
      <trkpt lat="45.74686" lon="5.66238">
        <ele>231</ele>
        <time>2020-01-15T19:50:21Z</time>
      </trkpt>
      <trkpt lat="45.74647" lon="5.66245">
        <ele>232</ele>
        <time>2020-01-15T19:50:30Z</time>
      </trkpt>
      <trkpt lat="45.74589" lon="5.66242">
        <ele>232</ele>
        <time>2020-01-15T19:50:44Z</time>
      </trkpt>
      <trkpt lat="45.74523" lon="5.66235">
        <ele>231</ele>
        <time>2020-01-15T19:50:59Z</time>
      </trkpt>
      <trkpt lat="45.74494" lon="5.66243">
        <ele>232</ele>
        <time>2020-01-15T19:51:06Z</time>
      </trkpt>
      <trkpt lat="45.74445" lon="5.66266">
        <ele>236</ele>
        <time>2020-01-15T19:51:18Z</time>
      </trkpt>
      <trkpt lat="45.744" lon="5.6627">
        <ele>238</ele>
        <time>2020-01-15T19:51:29Z</time>
      </trkpt>
      <trkpt lat="45.74353" lon="5.66266">
        <ele>240</ele>
        <time>2020-01-15T19:51:40Z</time>
      </trkpt>
      <trkpt lat="45.7433" lon="5.6626">
        <ele>240</ele>
        <time>2020-01-15T19:51:45Z</time>
      </trkpt>
      <trkpt lat="45.74316" lon="5.66255">
        <ele>240</ele>
        <time>2020-01-15T19:51:48Z</time>
      </trkpt>
      <trkpt lat="45.74273" lon="5.66231">
        <ele>240</ele>
        <time>2020-01-15T19:51:59Z</time>
      </trkpt>
      <trkpt lat="45.74237" lon="5.66204">
        <ele>239</ele>
        <time>2020-01-15T19:52:09Z</time>
      </trkpt>
      <trkpt lat="45.74157" lon="5.66154">
        <ele>237</ele>
        <time>2020-01-15T19:52:29Z</time>
      </trkpt>
      <trkpt lat="45.74115" lon="5.6612">
        <ele>236</ele>
        <time>2020-01-15T19:52:40Z</time>
      </trkpt>
      <trkpt lat="45.74058" lon="5.66059">
        <ele>232</ele>
        <time>2020-01-15T19:52:57Z</time>
      </trkpt>
      <trkpt lat="45.74044" lon="5.66041">
        <ele>232</ele>
        <time>2020-01-15T19:53:01Z</time>
      </trkpt>
      <trkpt lat="45.74039" lon="5.66023">
        <ele>231</ele>
        <time>2020-01-15T19:53:04Z</time>
      </trkpt>
      <trkpt lat="45.74035" lon="5.6599">
        <ele>230</ele>
        <time>2020-01-15T19:53:10Z</time>
      </trkpt>
      <trkpt lat="45.74054" lon="5.65872">
        <ele>228</ele>
        <time>2020-01-15T19:53:30Z</time>
      </trkpt>
      <trkpt lat="45.74076" lon="5.65841">
        <ele>228</ele>
        <time>2020-01-15T19:53:37Z</time>
      </trkpt>
      <trkpt lat="45.74087" lon="5.65806">
        <ele>229</ele>
        <time>2020-01-15T19:53:43Z</time>
      </trkpt>
      <trkpt lat="45.74096" lon="5.65788">
        <ele>229</ele>
        <time>2020-01-15T19:53:47Z</time>
      </trkpt>
      <trkpt lat="45.74168" lon="5.65723">
        <ele>230</ele>
        <time>2020-01-15T19:54:07Z</time>
      </trkpt>
      <trkpt lat="45.74209" lon="5.65706">
        <ele>230</ele>
        <time>2020-01-15T19:54:17Z</time>
      </trkpt>
      <trkpt lat="45.74219" lon="5.65699">
        <ele>230</ele>
        <time>2020-01-15T19:54:19Z</time>
      </trkpt>
      <trkpt lat="45.74227" lon="5.65686">
        <ele>230</ele>
        <time>2020-01-15T19:54:22Z</time>
      </trkpt>
      <trkpt lat="45.74232" lon="5.65671">
        <ele>230</ele>
        <time>2020-01-15T19:54:25Z</time>
      </trkpt>
      <trkpt lat="45.74236" lon="5.65623">
        <ele>230</ele>
        <time>2020-01-15T19:54:33Z</time>
      </trkpt>
      <trkpt lat="45.74245" lon="5.65583">
        <ele>230</ele>
        <time>2020-01-15T19:54:39Z</time>
      </trkpt>
      <trkpt lat="45.74255" lon="5.65552">
        <ele>230</ele>
        <time>2020-01-15T19:54:45Z</time>
      </trkpt>
      <trkpt lat="45.7426" lon="5.65522">
        <ele>231</ele>
        <time>2020-01-15T19:54:50Z</time>
      </trkpt>
      <trkpt lat="45.74266" lon="5.65377">
        <ele>233</ele>
        <time>2020-01-15T19:55:14Z</time>
      </trkpt>
      <trkpt lat="45.74267" lon="5.65239">
        <ele>235</ele>
        <time>2020-01-15T19:55:36Z</time>
      </trkpt>
      <trkpt lat="45.74273" lon="5.65173">
        <ele>235</ele>
        <time>2020-01-15T19:55:47Z</time>
      </trkpt>
      <trkpt lat="45.7427" lon="5.65105">
        <ele>240</ele>
        <time>2020-01-15T19:55:58Z</time>
      </trkpt>
      <trkpt lat="45.74263" lon="5.6505">
        <ele>249</ele>
        <time>2020-01-15T19:56:07Z</time>
      </trkpt>
      <trkpt lat="45.74256" lon="5.65035">
        <ele>253</ele>
        <time>2020-01-15T19:56:10Z</time>
      </trkpt>
      <trkpt lat="45.74217" lon="5.65003">
        <ele>259</ele>
        <time>2020-01-15T19:56:21Z</time>
      </trkpt>
      <trkpt lat="45.74198" lon="5.64991">
        <ele>260</ele>
        <time>2020-01-15T19:56:26Z</time>
      </trkpt>
      <trkpt lat="45.7424" lon="5.64983">
        <ele>263</ele>
        <time>2020-01-15T19:56:35Z</time>
      </trkpt>
      <trkpt lat="45.74278" lon="5.64982">
        <ele>264</ele>
        <time>2020-01-15T19:56:44Z</time>
      </trkpt>
      <trkpt lat="45.74291" lon="5.64974">
        <ele>265</ele>
        <time>2020-01-15T19:56:48Z</time>
      </trkpt>
      <trkpt lat="45.74296" lon="5.64943">
        <ele>270</ele>
        <time>2020-01-15T19:56:53Z</time>
      </trkpt>
      <trkpt lat="45.74295" lon="5.64931">
        <ele>272</ele>
        <time>2020-01-15T19:56:55Z</time>
      </trkpt>
      <trkpt lat="45.74289" lon="5.64924">
        <ele>273</ele>
        <time>2020-01-15T19:56:57Z</time>
      </trkpt>
      <trkpt lat="45.74149" lon="5.64908">
        <ele>280</ele>
        <time>2020-01-15T19:57:29Z</time>
      </trkpt>
      <trkpt lat="45.74048" lon="5.64901">
        <ele>286</ele>
        <time>2020-01-15T19:57:53Z</time>
      </trkpt>
      <trkpt lat="45.73939" lon="5.64901">
        <ele>292</ele>
        <time>2020-01-15T19:58:18Z</time>
      </trkpt>
      <trkpt lat="45.73912" lon="5.64906">
        <ele>293</ele>
        <time>2020-01-15T19:58:25Z</time>
      </trkpt>
      <trkpt lat="45.73875" lon="5.64886">
        <ele>296</ele>
        <time>2020-01-15T19:58:34Z</time>
      </trkpt>
      <trkpt lat="45.73808" lon="5.64857">
        <ele>299</ele>
        <time>2020-01-15T19:58:50Z</time>
      </trkpt>
      <trkpt lat="45.73684" lon="5.64828">
        <ele>303</ele>
        <time>2020-01-15T19:59:20Z</time>
      </trkpt>
      <trkpt lat="45.73623" lon="5.64803">
        <ele>304</ele>
        <time>2020-01-15T19:59:35Z</time>
      </trkpt>
      <trkpt lat="45.73607" lon="5.64806">
        <ele>302</ele>
        <time>2020-01-15T19:59:38Z</time>
      </trkpt>
      <trkpt lat="45.73575" lon="5.64819">
        <ele>299</ele>
        <time>2020-01-15T19:59:46Z</time>
      </trkpt>
      <trkpt lat="45.73549" lon="5.64833">
        <ele>298</ele>
        <time>2020-01-15T19:59:53Z</time>
      </trkpt>
      <trkpt lat="45.73526" lon="5.6484">
        <ele>297</ele>
        <time>2020-01-15T19:59:58Z</time>
      </trkpt>
      <trkpt lat="45.73481" lon="5.6482">
        <ele>297</ele>
        <time>2020-01-15T20:00:09Z</time>
      </trkpt>
      <trkpt lat="45.73468" lon="5.6482">
        <ele>297</ele>
        <time>2020-01-15T20:00:12Z</time>
      </trkpt>
      <trkpt lat="45.73427" lon="5.64827">
        <ele>295</ele>
        <time>2020-01-15T20:00:22Z</time>
      </trkpt>
      <trkpt lat="45.73367" lon="5.64823">
        <ele>296</ele>
        <time>2020-01-15T20:00:36Z</time>
      </trkpt>
      <trkpt lat="45.73354" lon="5.64827">
        <ele>296</ele>
        <time>2020-01-15T20:00:39Z</time>
      </trkpt>
      <trkpt lat="45.73329" lon="5.64862">
        <ele>293</ele>
        <time>2020-01-15T20:00:47Z</time>
      </trkpt>
      <trkpt lat="45.73294" lon="5.64874">
        <ele>291</ele>
        <time>2020-01-15T20:00:55Z</time>
      </trkpt>
      <trkpt lat="45.73223" lon="5.64909">
        <ele>287</ele>
        <time>2020-01-15T20:01:13Z</time>
      </trkpt>
      <trkpt lat="45.73174" lon="5.6491">
        <ele>289</ele>
        <time>2020-01-15T20:01:24Z</time>
      </trkpt>
      <trkpt lat="45.73139" lon="5.64915">
        <ele>289</ele>
        <time>2020-01-15T20:01:33Z</time>
      </trkpt>
      <trkpt lat="45.73113" lon="5.64908">
        <ele>289</ele>
        <time>2020-01-15T20:01:39Z</time>
      </trkpt>
      <trkpt lat="45.73103" lon="5.64901">
        <ele>289</ele>
        <time>2020-01-15T20:01:41Z</time>
      </trkpt>
      <trkpt lat="45.7309" lon="5.64898">
        <ele>289</ele>
        <time>2020-01-15T20:01:45Z</time>
      </trkpt>
      <trkpt lat="45.73081" lon="5.64897">
        <ele>289</ele>
        <time>2020-01-15T20:01:47Z</time>
      </trkpt>
      <trkpt lat="45.7307" lon="5.649">
        <ele>289</ele>
        <time>2020-01-15T20:01:49Z</time>
      </trkpt>
      <trkpt lat="45.73062" lon="5.64907">
        <ele>289</ele>
        <time>2020-01-15T20:01:51Z</time>
      </trkpt>
      <trkpt lat="45.7305" lon="5.64925">
        <ele>288</ele>
        <time>2020-01-15T20:01:55Z</time>
      </trkpt>
      <trkpt lat="45.73023" lon="5.64972">
        <ele>284</ele>
        <time>2020-01-15T20:02:05Z</time>
      </trkpt>
      <trkpt lat="45.73012" lon="5.6498">
        <ele>283</ele>
        <time>2020-01-15T20:02:08Z</time>
      </trkpt>
      <trkpt lat="45.72987" lon="5.64982">
        <ele>283</ele>
        <time>2020-01-15T20:02:14Z</time>
      </trkpt>
      <trkpt lat="45.7298" lon="5.64986">
        <ele>283</ele>
        <time>2020-01-15T20:02:16Z</time>
      </trkpt>
      <trkpt lat="45.72941" lon="5.65033">
        <ele>278</ele>
        <time>2020-01-15T20:02:28Z</time>
      </trkpt>
      <trkpt lat="45.7293" lon="5.65035">
        <ele>278</ele>
        <time>2020-01-15T20:02:30Z</time>
      </trkpt>
      <trkpt lat="45.72894" lon="5.65006">
        <ele>279</ele>
        <time>2020-01-15T20:02:40Z</time>
      </trkpt>
      <trkpt lat="45.72841" lon="5.65004">
        <ele>277</ele>
        <time>2020-01-15T20:02:52Z</time>
      </trkpt>
      <trkpt lat="45.72832" lon="5.64973">
        <ele>278</ele>
        <time>2020-01-15T20:02:58Z</time>
      </trkpt>
      <trkpt lat="45.72807" lon="5.64914">
        <ele>279</ele>
        <time>2020-01-15T20:03:09Z</time>
      </trkpt>
      <trkpt lat="45.72806" lon="5.64902">
        <ele>280</ele>
        <time>2020-01-15T20:03:11Z</time>
      </trkpt>
      <trkpt lat="45.72815" lon="5.64895">
        <ele>280</ele>
        <time>2020-01-15T20:03:13Z</time>
      </trkpt>
      <trkpt lat="45.72839" lon="5.64888">
        <ele>281</ele>
        <time>2020-01-15T20:03:19Z</time>
      </trkpt>
      <trkpt lat="45.72846" lon="5.64882">
        <ele>281</ele>
        <time>2020-01-15T20:03:21Z</time>
      </trkpt>
      <trkpt lat="45.72852" lon="5.6487">
        <ele>281</ele>
        <time>2020-01-15T20:03:24Z</time>
      </trkpt>
      <trkpt lat="45.72853" lon="5.64823">
        <ele>282</ele>
        <time>2020-01-15T20:03:31Z</time>
      </trkpt>
      <trkpt lat="45.72856" lon="5.64808">
        <ele>282</ele>
        <time>2020-01-15T20:03:34Z</time>
      </trkpt>
      <trkpt lat="45.72872" lon="5.64784">
        <ele>283</ele>
        <time>2020-01-15T20:03:39Z</time>
      </trkpt>
      <trkpt lat="45.72902" lon="5.64764">
        <ele>283</ele>
        <time>2020-01-15T20:03:47Z</time>
      </trkpt>
      <trkpt lat="45.72893" lon="5.64715">
        <ele>286</ele>
        <time>2020-01-15T20:03:55Z</time>
      </trkpt>
      <trkpt lat="45.72907" lon="5.64678">
        <ele>288</ele>
        <time>2020-01-15T20:04:02Z</time>
      </trkpt>
      <trkpt lat="45.7291" lon="5.64587">
        <ele>296</ele>
        <time>2020-01-15T20:04:17Z</time>
      </trkpt>
      <trkpt lat="45.72902" lon="5.64494">
        <ele>302</ele>
        <time>2020-01-15T20:04:32Z</time>
      </trkpt>
      <trkpt lat="45.72904" lon="5.6448">
        <ele>303</ele>
        <time>2020-01-15T20:04:34Z</time>
      </trkpt>
      <trkpt lat="45.72912" lon="5.64466">
        <ele>305</ele>
        <time>2020-01-15T20:04:37Z</time>
      </trkpt>
      <trkpt lat="45.72918" lon="5.64439">
        <ele>307</ele>
        <time>2020-01-15T20:04:42Z</time>
      </trkpt>
      <trkpt lat="45.72914" lon="5.64419">
        <ele>308</ele>
        <time>2020-01-15T20:04:45Z</time>
      </trkpt>
      <trkpt lat="45.72903" lon="5.644">
        <ele>309</ele>
        <time>2020-01-15T20:04:49Z</time>
      </trkpt>
      <trkpt lat="45.72887" lon="5.64386">
        <ele>309</ele>
        <time>2020-01-15T20:04:54Z</time>
      </trkpt>
      <trkpt lat="45.72862" lon="5.64375">
        <ele>306</ele>
        <time>2020-01-15T20:05:00Z</time>
      </trkpt>
      <trkpt lat="45.72855" lon="5.64366">
        <ele>306</ele>
        <time>2020-01-15T20:05:02Z</time>
      </trkpt>
      <trkpt lat="45.72846" lon="5.64344">
        <ele>307</ele>
        <time>2020-01-15T20:05:06Z</time>
      </trkpt>
      <trkpt lat="45.72843" lon="5.64322">
        <ele>309</ele>
        <time>2020-01-15T20:05:10Z</time>
      </trkpt>
      <trkpt lat="45.72846" lon="5.64305">
        <ele>311</ele>
        <time>2020-01-15T20:05:13Z</time>
      </trkpt>
      <trkpt lat="45.72855" lon="5.64269">
        <ele>316</ele>
        <time>2020-01-15T20:05:19Z</time>
      </trkpt>
      <trkpt lat="45.72864" lon="5.64247">
        <ele>320</ele>
        <time>2020-01-15T20:05:23Z</time>
      </trkpt>
      <trkpt lat="45.72871" lon="5.64243">
        <ele>322</ele>
        <time>2020-01-15T20:05:25Z</time>
      </trkpt>
      <trkpt lat="45.72876" lon="5.6425">
        <ele>322</ele>
        <time>2020-01-15T20:05:27Z</time>
      </trkpt>
      <trkpt lat="45.72874" lon="5.64273">
        <ele>320</ele>
        <time>2020-01-15T20:05:30Z</time>
      </trkpt>
      <trkpt lat="45.72876" lon="5.64295">
        <ele>318</ele>
        <time>2020-01-15T20:05:34Z</time>
      </trkpt>
      <trkpt lat="45.72879" lon="5.64305">
        <ele>317</ele>
        <time>2020-01-15T20:05:36Z</time>
      </trkpt>
      <trkpt lat="45.72885" lon="5.64308">
        <ele>318</ele>
        <time>2020-01-15T20:05:37Z</time>
      </trkpt>
      <trkpt lat="45.72902" lon="5.64255">
        <ele>327</ele>
        <time>2020-01-15T20:05:47Z</time>
      </trkpt>
      <trkpt lat="45.72909" lon="5.64221">
        <ele>332</ele>
        <time>2020-01-15T20:05:53Z</time>
      </trkpt>
      <trkpt lat="45.72931" lon="5.64184">
        <ele>338</ele>
        <time>2020-01-15T20:06:00Z</time>
      </trkpt>
      <trkpt lat="45.72945" lon="5.64177">
        <ele>340</ele>
        <time>2020-01-15T20:06:04Z</time>
      </trkpt>
      <trkpt lat="45.72957" lon="5.6418">
        <ele>341</ele>
        <time>2020-01-15T20:06:07Z</time>
      </trkpt>
      <trkpt lat="45.72982" lon="5.64191">
        <ele>343</ele>
        <time>2020-01-15T20:06:13Z</time>
      </trkpt>
      <trkpt lat="45.72983" lon="5.64199">
        <ele>342</ele>
        <time>2020-01-15T20:06:14Z</time>
      </trkpt>
      <trkpt lat="45.73" lon="5.64203">
        <ele>344</ele>
        <time>2020-01-15T20:06:18Z</time>
      </trkpt>
      <trkpt lat="45.73032" lon="5.64205">
        <ele>347</ele>
        <time>2020-01-15T20:06:26Z</time>
      </trkpt>
      <trkpt lat="45.73078" lon="5.64196">
        <ele>353</ele>
        <time>2020-01-15T20:06:37Z</time>
      </trkpt>
      <trkpt lat="45.73083" lon="5.64202">
        <ele>354</ele>
        <time>2020-01-15T20:06:38Z</time>
      </trkpt>
      <trkpt lat="45.73119" lon="5.64313">
        <ele>359</ele>
        <time>2020-01-15T20:06:58Z</time>
      </trkpt>
      <trkpt lat="45.7313" lon="5.64319">
        <ele>361</ele>
        <time>2020-01-15T20:07:01Z</time>
      </trkpt>
      <trkpt lat="45.73147" lon="5.64323">
        <ele>364</ele>
        <time>2020-01-15T20:07:05Z</time>
      </trkpt>
      <trkpt lat="45.73164" lon="5.64324">
        <ele>367</ele>
        <time>2020-01-15T20:07:09Z</time>
      </trkpt>
      <trkpt lat="45.73189" lon="5.64321">
        <ele>371</ele>
        <time>2020-01-15T20:07:15Z</time>
      </trkpt>
      <trkpt lat="45.73213" lon="5.64272">
        <ele>377</ele>
        <time>2020-01-15T20:07:24Z</time>
      </trkpt>
      <trkpt lat="45.73217" lon="5.64239">
        <ele>379</ele>
        <time>2020-01-15T20:07:30Z</time>
      </trkpt>
      <trkpt lat="45.73226" lon="5.64226">
        <ele>380</ele>
        <time>2020-01-15T20:07:33Z</time>
      </trkpt>
      <trkpt lat="45.7326" lon="5.64195">
        <ele>384</ele>
        <time>2020-01-15T20:07:42Z</time>
      </trkpt>
      <trkpt lat="45.7331" lon="5.6419">
        <ele>390</ele>
        <time>2020-01-15T20:07:54Z</time>
      </trkpt>
      <trkpt lat="45.73324" lon="5.64186">
        <ele>391</ele>
        <time>2020-01-15T20:07:57Z</time>
      </trkpt>
      <trkpt lat="45.7335" lon="5.64173">
        <ele>393</ele>
        <time>2020-01-15T20:08:04Z</time>
      </trkpt>
      <trkpt lat="45.73364" lon="5.6417">
        <ele>393</ele>
        <time>2020-01-15T20:08:07Z</time>
      </trkpt>
      <trkpt lat="45.73397" lon="5.64153">
        <ele>392</ele>
        <time>2020-01-15T20:08:15Z</time>
      </trkpt>
      <trkpt lat="45.73415" lon="5.64147">
        <ele>391</ele>
        <time>2020-01-15T20:08:19Z</time>
      </trkpt>
      <trkpt lat="45.73451" lon="5.64143">
        <ele>388</ele>
        <time>2020-01-15T20:08:28Z</time>
      </trkpt>
      <trkpt lat="45.73484" lon="5.64126">
        <ele>384</ele>
        <time>2020-01-15T20:08:36Z</time>
      </trkpt>
      <trkpt lat="45.73496" lon="5.64117">
        <ele>382</ele>
        <time>2020-01-15T20:08:39Z</time>
      </trkpt>
      <trkpt lat="45.73506" lon="5.64104">
        <ele>379</ele>
        <time>2020-01-15T20:08:42Z</time>
      </trkpt>
      <trkpt lat="45.73522" lon="5.64095">
        <ele>377</ele>
        <time>2020-01-15T20:08:46Z</time>
      </trkpt>
      <trkpt lat="45.73546" lon="5.64094">
        <ele>376</ele>
        <time>2020-01-15T20:08:52Z</time>
      </trkpt>
      <trkpt lat="45.73592" lon="5.64112">
        <ele>376</ele>
        <time>2020-01-15T20:09:03Z</time>
      </trkpt>
      <trkpt lat="45.73603" lon="5.64119">
        <ele>376</ele>
        <time>2020-01-15T20:09:06Z</time>
      </trkpt>
      <trkpt lat="45.73616" lon="5.64123">
        <ele>375</ele>
        <time>2020-01-15T20:09:09Z</time>
      </trkpt>
      <trkpt lat="45.73626" lon="5.64123">
        <ele>375</ele>
        <time>2020-01-15T20:09:11Z</time>
      </trkpt>
      <trkpt lat="45.73635" lon="5.6413">
        <ele>375</ele>
        <time>2020-01-15T20:09:14Z</time>
      </trkpt>
      <trkpt lat="45.73668" lon="5.64133">
        <ele>372</ele>
        <time>2020-01-15T20:09:22Z</time>
      </trkpt>
      <trkpt lat="45.73686" lon="5.64147">
        <ele>372</ele>
        <time>2020-01-15T20:09:26Z</time>
      </trkpt>
      <trkpt lat="45.73689" lon="5.64136">
        <ele>371</ele>
        <time>2020-01-15T20:09:28Z</time>
      </trkpt>
      <trkpt lat="45.73702" lon="5.64114">
        <ele>369</ele>
        <time>2020-01-15T20:09:33Z</time>
      </trkpt>
      <trkpt lat="45.73705" lon="5.64093">
        <ele>367</ele>
        <time>2020-01-15T20:09:36Z</time>
      </trkpt>
      <trkpt lat="45.73702" lon="5.64072">
        <ele>366</ele>
        <time>2020-01-15T20:09:40Z</time>
      </trkpt>
      <trkpt lat="45.73704" lon="5.64043">
        <ele>364</ele>
        <time>2020-01-15T20:09:45Z</time>
      </trkpt>
      <trkpt lat="45.73702" lon="5.64021">
        <ele>363</ele>
        <time>2020-01-15T20:09:48Z</time>
      </trkpt>
      <trkpt lat="45.73688" lon="5.64008">
        <ele>363</ele>
        <time>2020-01-15T20:09:52Z</time>
      </trkpt>
      <trkpt lat="45.73679" lon="5.63991">
        <ele>363</ele>
        <time>2020-01-15T20:09:56Z</time>
      </trkpt>
      <trkpt lat="45.73683" lon="5.63919">
        <ele>361</ele>
        <time>2020-01-15T20:10:07Z</time>
      </trkpt>
      <trkpt lat="45.73677" lon="5.63871">
        <ele>363</ele>
        <time>2020-01-15T20:10:15Z</time>
      </trkpt>
      <trkpt lat="45.73678" lon="5.63857">
        <ele>364</ele>
        <time>2020-01-15T20:10:18Z</time>
      </trkpt>
      <trkpt lat="45.73675" lon="5.63843">
        <ele>364</ele>
        <time>2020-01-15T20:10:20Z</time>
      </trkpt>
      <trkpt lat="45.73654" lon="5.63829">
        <ele>364</ele>
        <time>2020-01-15T20:10:26Z</time>
      </trkpt>
      <trkpt lat="45.73641" lon="5.63811">
        <ele>365</ele>
        <time>2020-01-15T20:10:30Z</time>
      </trkpt>
      <trkpt lat="45.73632" lon="5.63775">
        <ele>368</ele>
        <time>2020-01-15T20:10:36Z</time>
      </trkpt>
      <trkpt lat="45.73626" lon="5.63762">
        <ele>368</ele>
        <time>2020-01-15T20:10:38Z</time>
      </trkpt>
      <trkpt lat="45.73594" lon="5.63732">
        <ele>368</ele>
        <time>2020-01-15T20:10:47Z</time>
      </trkpt>
      <trkpt lat="45.7359" lon="5.63724">
        <ele>368</ele>
        <time>2020-01-15T20:10:49Z</time>
      </trkpt>
      <trkpt lat="45.7359" lon="5.63713">
        <ele>369</ele>
        <time>2020-01-15T20:10:51Z</time>
      </trkpt>
      <trkpt lat="45.73595" lon="5.63703">
        <ele>370</ele>
        <time>2020-01-15T20:10:53Z</time>
      </trkpt>
      <trkpt lat="45.73598" lon="5.63688">
        <ele>371</ele>
        <time>2020-01-15T20:10:55Z</time>
      </trkpt>
      <trkpt lat="45.73604" lon="5.6362">
        <ele>373</ele>
        <time>2020-01-15T20:11:07Z</time>
      </trkpt>
      <trkpt lat="45.73673" lon="5.63579">
        <ele>373</ele>
        <time>2020-01-15T20:11:24Z</time>
      </trkpt>
      <trkpt lat="45.73682" lon="5.63572">
        <ele>374</ele>
        <time>2020-01-15T20:11:26Z</time>
      </trkpt>
      <trkpt lat="45.73689" lon="5.63559">
        <ele>374</ele>
        <time>2020-01-15T20:11:29Z</time>
      </trkpt>
      <trkpt lat="45.7369" lon="5.63542">
        <ele>374</ele>
        <time>2020-01-15T20:11:32Z</time>
      </trkpt>
      <trkpt lat="45.73681" lon="5.63495">
        <ele>373</ele>
        <time>2020-01-15T20:11:40Z</time>
      </trkpt>
      <trkpt lat="45.7367" lon="5.63474">
        <ele>372</ele>
        <time>2020-01-15T20:11:44Z</time>
      </trkpt>
      <trkpt lat="45.7367" lon="5.63425">
        <ele>371</ele>
        <time>2020-01-15T20:11:52Z</time>
      </trkpt>
      <trkpt lat="45.73667" lon="5.63389">
        <ele>370</ele>
        <time>2020-01-15T20:11:58Z</time>
      </trkpt>
      <trkpt lat="45.73654" lon="5.6339">
        <ele>371</ele>
        <time>2020-01-15T20:12:01Z</time>
      </trkpt>
      <trkpt lat="45.73621" lon="5.63386">
        <ele>372</ele>
        <time>2020-01-15T20:12:09Z</time>
      </trkpt>
      <trkpt lat="45.73549" lon="5.63384">
        <ele>374</ele>
        <time>2020-01-15T20:12:26Z</time>
      </trkpt>
      <trkpt lat="45.73509" lon="5.63367">
        <ele>376</ele>
        <time>2020-01-15T20:12:35Z</time>
      </trkpt>
      <trkpt lat="45.73484" lon="5.63372">
        <ele>377</ele>
        <time>2020-01-15T20:12:41Z</time>
      </trkpt>
      <trkpt lat="45.73448" lon="5.63393">
        <ele>379</ele>
        <time>2020-01-15T20:12:50Z</time>
      </trkpt>
      <trkpt lat="45.73434" lon="5.63398">
        <ele>380</ele>
        <time>2020-01-15T20:12:54Z</time>
      </trkpt>
      <trkpt lat="45.73383" lon="5.63408">
        <ele>382</ele>
        <time>2020-01-15T20:13:06Z</time>
      </trkpt>
      <trkpt lat="45.73375" lon="5.63414">
        <ele>382</ele>
        <time>2020-01-15T20:13:08Z</time>
      </trkpt>
      <trkpt lat="45.73368" lon="5.63423">
        <ele>382</ele>
        <time>2020-01-15T20:13:10Z</time>
      </trkpt>
      <trkpt lat="45.73349" lon="5.6347">
        <ele>380</ele>
        <time>2020-01-15T20:13:19Z</time>
      </trkpt>
      <trkpt lat="45.7334" lon="5.63483">
        <ele>380</ele>
        <time>2020-01-15T20:13:22Z</time>
      </trkpt>
      <trkpt lat="45.73327" lon="5.63491">
        <ele>379</ele>
        <time>2020-01-15T20:13:25Z</time>
      </trkpt>
      <trkpt lat="45.73307" lon="5.63495">
        <ele>379</ele>
        <time>2020-01-15T20:13:30Z</time>
      </trkpt>
      <trkpt lat="45.73299" lon="5.63499">
        <ele>379</ele>
        <time>2020-01-15T20:13:32Z</time>
      </trkpt>
      <trkpt lat="45.73291" lon="5.63511">
        <ele>378</ele>
        <time>2020-01-15T20:13:35Z</time>
      </trkpt>
      <trkpt lat="45.73287" lon="5.63522">
        <ele>376</ele>
        <time>2020-01-15T20:13:37Z</time>
      </trkpt>
      <trkpt lat="45.73286" lon="5.63535">
        <ele>375</ele>
        <time>2020-01-15T20:13:39Z</time>
      </trkpt>
      <trkpt lat="45.73276" lon="5.63533">
        <ele>375</ele>
        <time>2020-01-15T20:13:41Z</time>
      </trkpt>
      <trkpt lat="45.73264" lon="5.63534">
        <ele>375</ele>
        <time>2020-01-15T20:13:44Z</time>
      </trkpt>
      <trkpt lat="45.7321" lon="5.63557">
        <ele>373</ele>
        <time>2020-01-15T20:13:57Z</time>
      </trkpt>
      <trkpt lat="45.73182" lon="5.63562">
        <ele>373</ele>
        <time>2020-01-15T20:14:04Z</time>
      </trkpt>
      <trkpt lat="45.73126" lon="5.63566">
        <ele>374</ele>
        <time>2020-01-15T20:14:17Z</time>
      </trkpt>
      <trkpt lat="45.73023" lon="5.63606">
        <ele>372</ele>
        <time>2020-01-15T20:14:42Z</time>
      </trkpt>
      <trkpt lat="45.72998" lon="5.63609">
        <ele>372</ele>
        <time>2020-01-15T20:14:47Z</time>
      </trkpt>
      <trkpt lat="45.72963" lon="5.63619">
        <ele>369</ele>
        <time>2020-01-15T20:14:56Z</time>
      </trkpt>
      <trkpt lat="45.72929" lon="5.63622">
        <ele>368</ele>
        <time>2020-01-15T20:15:04Z</time>
      </trkpt>
      <trkpt lat="45.7292" lon="5.63628">
        <ele>367</ele>
        <time>2020-01-15T20:15:06Z</time>
      </trkpt>
      <trkpt lat="45.72911" lon="5.63621">
        <ele>367</ele>
        <time>2020-01-15T20:15:08Z</time>
      </trkpt>
      <trkpt lat="45.72904" lon="5.63609">
        <ele>368</ele>
        <time>2020-01-15T20:15:11Z</time>
      </trkpt>
      <trkpt lat="45.72881" lon="5.636">
        <ele>367</ele>
        <time>2020-01-15T20:15:17Z</time>
      </trkpt>
      <trkpt lat="45.72848" lon="5.63595">
        <ele>365</ele>
        <time>2020-01-15T20:15:24Z</time>
      </trkpt>
      <trkpt lat="45.72797" lon="5.63519">
        <ele>367</ele>
        <time>2020-01-15T20:15:41Z</time>
      </trkpt>
      <trkpt lat="45.72777" lon="5.63504">
        <ele>366</ele>
        <time>2020-01-15T20:15:47Z</time>
      </trkpt>
      <trkpt lat="45.72766" lon="5.63501">
        <ele>365</ele>
        <time>2020-01-15T20:15:49Z</time>
      </trkpt>
      <trkpt lat="45.72715" lon="5.63505">
        <ele>363</ele>
        <time>2020-01-15T20:16:01Z</time>
      </trkpt>
      <trkpt lat="45.72685" lon="5.6351">
        <ele>362</ele>
        <time>2020-01-15T20:16:08Z</time>
      </trkpt>
      <trkpt lat="45.72668" lon="5.63508">
        <ele>361</ele>
        <time>2020-01-15T20:16:12Z</time>
      </trkpt>
      <trkpt lat="45.72663" lon="5.63496">
        <ele>359</ele>
        <time>2020-01-15T20:16:15Z</time>
      </trkpt>
      <trkpt lat="45.72664" lon="5.63482">
        <ele>358</ele>
        <time>2020-01-15T20:16:17Z</time>
      </trkpt>
      <trkpt lat="45.72671" lon="5.63475">
        <ele>357</ele>
        <time>2020-01-15T20:16:19Z</time>
      </trkpt>
      <trkpt lat="45.72681" lon="5.63471">
        <ele>357</ele>
        <time>2020-01-15T20:16:21Z</time>
      </trkpt>
      <trkpt lat="45.72717" lon="5.63468">
        <ele>357</ele>
        <time>2020-01-15T20:16:30Z</time>
      </trkpt>
      <trkpt lat="45.72731" lon="5.63462">
        <ele>357</ele>
        <time>2020-01-15T20:16:33Z</time>
      </trkpt>
      <trkpt lat="45.72829" lon="5.63375">
        <ele>355</ele>
        <time>2020-01-15T20:17:00Z</time>
      </trkpt>
      <trkpt lat="45.7286" lon="5.63344">
        <ele>355</ele>
        <time>2020-01-15T20:17:09Z</time>
      </trkpt>
      <trkpt lat="45.72872" lon="5.63328">
        <ele>354</ele>
        <time>2020-01-15T20:17:13Z</time>
      </trkpt>
      <trkpt lat="45.72858" lon="5.63289">
        <ele>346</ele>
        <time>2020-01-15T20:17:20Z</time>
      </trkpt>
      <trkpt lat="45.72837" lon="5.63261">
        <ele>343</ele>
        <time>2020-01-15T20:17:27Z</time>
      </trkpt>
      <trkpt lat="45.72828" lon="5.63245">
        <ele>342</ele>
        <time>2020-01-15T20:17:30Z</time>
      </trkpt>
      <trkpt lat="45.72819" lon="5.63193">
        <ele>338</ele>
        <time>2020-01-15T20:17:39Z</time>
      </trkpt>
      <trkpt lat="45.72801" lon="5.63045">
        <ele>336</ele>
        <time>2020-01-15T20:18:03Z</time>
      </trkpt>
      <trkpt lat="45.72797" lon="5.62974">
        <ele>340</ele>
        <time>2020-01-15T20:18:15Z</time>
      </trkpt>
      <trkpt lat="45.72803" lon="5.62909">
        <ele>343</ele>
        <time>2020-01-15T20:18:25Z</time>
      </trkpt>
      <trkpt lat="45.72822" lon="5.62808">
        <ele>340</ele>
        <time>2020-01-15T20:18:43Z</time>
      </trkpt>
      <trkpt lat="45.72822" lon="5.62791">
        <ele>338</ele>
        <time>2020-01-15T20:18:45Z</time>
      </trkpt>
      <trkpt lat="45.72818" lon="5.62774">
        <ele>339</ele>
        <time>2020-01-15T20:18:48Z</time>
      </trkpt>
      <trkpt lat="45.72791" lon="5.62716">
        <ele>342</ele>
        <time>2020-01-15T20:19:00Z</time>
      </trkpt>
      <trkpt lat="45.72782" lon="5.62686">
        <ele>340</ele>
        <time>2020-01-15T20:19:05Z</time>
      </trkpt>
      <trkpt lat="45.72778" lon="5.6266">
        <ele>336</ele>
        <time>2020-01-15T20:19:09Z</time>
      </trkpt>
      <trkpt lat="45.72784" lon="5.62655">
        <ele>335</ele>
        <time>2020-01-15T20:19:11Z</time>
      </trkpt>
      <trkpt lat="45.72821" lon="5.6265">
        <ele>330</ele>
        <time>2020-01-15T20:19:20Z</time>
      </trkpt>
      <trkpt lat="45.72856" lon="5.62653">
        <ele>328</ele>
        <time>2020-01-15T20:19:28Z</time>
      </trkpt>
      <trkpt lat="45.72893" lon="5.62662">
        <ele>326</ele>
        <time>2020-01-15T20:19:37Z</time>
      </trkpt>
      <trkpt lat="45.72927" lon="5.62667">
        <ele>324</ele>
        <time>2020-01-15T20:19:44Z</time>
      </trkpt>
      <trkpt lat="45.72938" lon="5.62665">
        <ele>323</ele>
        <time>2020-01-15T20:19:47Z</time>
      </trkpt>
      <trkpt lat="45.72946" lon="5.62658">
        <ele>323</ele>
        <time>2020-01-15T20:19:49Z</time>
      </trkpt>
      <trkpt lat="45.72955" lon="5.62654">
        <ele>322</ele>
        <time>2020-01-15T20:19:51Z</time>
      </trkpt>
      <trkpt lat="45.72965" lon="5.62653">
        <ele>322</ele>
        <time>2020-01-15T20:19:54Z</time>
      </trkpt>
      <trkpt lat="45.72973" lon="5.62645">
        <ele>322</ele>
        <time>2020-01-15T20:19:56Z</time>
      </trkpt>
      <trkpt lat="45.72972" lon="5.62631">
        <ele>322</ele>
        <time>2020-01-15T20:19:58Z</time>
      </trkpt>
      <trkpt lat="45.72958" lon="5.62592">
        <ele>322</ele>
        <time>2020-01-15T20:20:06Z</time>
      </trkpt>
      <trkpt lat="45.72945" lon="5.62569">
        <ele>321</ele>
        <time>2020-01-15T20:20:10Z</time>
      </trkpt>
      <trkpt lat="45.72951" lon="5.62553">
        <ele>321</ele>
        <time>2020-01-15T20:20:13Z</time>
      </trkpt>
      <trkpt lat="45.73023" lon="5.62518">
        <ele>321</ele>
        <time>2020-01-15T20:20:31Z</time>
      </trkpt>
      <trkpt lat="45.73056" lon="5.62498">
        <ele>322</ele>
        <time>2020-01-15T20:20:39Z</time>
      </trkpt>
      <trkpt lat="45.73247" lon="5.62401">
        <ele>322</ele>
        <time>2020-01-15T20:21:27Z</time>
      </trkpt>
      <trkpt lat="45.73283" lon="5.62406">
        <ele>323</ele>
        <time>2020-01-15T20:21:35Z</time>
      </trkpt>
      <trkpt lat="45.73323" lon="5.62404">
        <ele>324</ele>
        <time>2020-01-15T20:21:45Z</time>
      </trkpt>
      <trkpt lat="45.73335" lon="5.62508">
        <ele>326</ele>
        <time>2020-01-15T20:22:02Z</time>
      </trkpt>
      <trkpt lat="45.73336" lon="5.62536">
        <ele>330</ele>
        <time>2020-01-15T20:22:06Z</time>
      </trkpt>
      <trkpt lat="45.73343" lon="5.62547">
        <ele>331</ele>
        <time>2020-01-15T20:22:09Z</time>
      </trkpt>
      <trkpt lat="45.73353" lon="5.62553">
        <ele>332</ele>
        <time>2020-01-15T20:22:11Z</time>
      </trkpt>
      <trkpt lat="45.73396" lon="5.62548">
        <ele>332</ele>
        <time>2020-01-15T20:22:21Z</time>
      </trkpt>
      <trkpt lat="45.73458" lon="5.62547">
        <ele>333</ele>
        <time>2020-01-15T20:22:36Z</time>
      </trkpt>
      <trkpt lat="45.73473" lon="5.6255">
        <ele>333</ele>
        <time>2020-01-15T20:22:39Z</time>
      </trkpt>
      <trkpt lat="45.73492" lon="5.62559">
        <ele>334</ele>
        <time>2020-01-15T20:22:44Z</time>
      </trkpt>
      <trkpt lat="45.73506" lon="5.62572">
        <ele>336</ele>
        <time>2020-01-15T20:22:48Z</time>
      </trkpt>
      <trkpt lat="45.73524" lon="5.62611">
        <ele>341</ele>
        <time>2020-01-15T20:22:56Z</time>
      </trkpt>
      <trkpt lat="45.73529" lon="5.62638">
        <ele>345</ele>
        <time>2020-01-15T20:23:00Z</time>
      </trkpt>
      <trkpt lat="45.73531" lon="5.62663">
        <ele>349</ele>
        <time>2020-01-15T20:23:04Z</time>
      </trkpt>
      <trkpt lat="45.73528" lon="5.62704">
        <ele>350</ele>
        <time>2020-01-15T20:23:11Z</time>
      </trkpt>
      <trkpt lat="45.73532" lon="5.62728">
        <ele>351</ele>
        <time>2020-01-15T20:23:15Z</time>
      </trkpt>
      <trkpt lat="45.73542" lon="5.62735">
        <ele>352</ele>
        <time>2020-01-15T20:23:18Z</time>
      </trkpt>
      <trkpt lat="45.73573" lon="5.62733">
        <ele>353</ele>
        <time>2020-01-15T20:23:25Z</time>
      </trkpt>
      <trkpt lat="45.73609" lon="5.62766">
        <ele>356</ele>
        <time>2020-01-15T20:23:35Z</time>
      </trkpt>
      <trkpt lat="45.73638" lon="5.62798">
        <ele>359</ele>
        <time>2020-01-15T20:23:43Z</time>
      </trkpt>
      <trkpt lat="45.73647" lon="5.62799">
        <ele>359</ele>
        <time>2020-01-15T20:23:45Z</time>
      </trkpt>
      <trkpt lat="45.73665" lon="5.62786">
        <ele>360</ele>
        <time>2020-01-15T20:23:50Z</time>
      </trkpt>
      <trkpt lat="45.73676" lon="5.62759">
        <ele>361</ele>
        <time>2020-01-15T20:23:55Z</time>
      </trkpt>
      <trkpt lat="45.73684" lon="5.62746">
        <ele>361</ele>
        <time>2020-01-15T20:23:58Z</time>
      </trkpt>
      <trkpt lat="45.7375" lon="5.62713">
        <ele>364</ele>
        <time>2020-01-15T20:24:14Z</time>
      </trkpt>
      <trkpt lat="45.73791" lon="5.62696">
        <ele>370</ele>
        <time>2020-01-15T20:24:24Z</time>
      </trkpt>
      <trkpt lat="45.73823" lon="5.62687">
        <ele>373</ele>
        <time>2020-01-15T20:24:32Z</time>
      </trkpt>
      <trkpt lat="45.73858" lon="5.62671">
        <ele>377</ele>
        <time>2020-01-15T20:24:41Z</time>
      </trkpt>
      <trkpt lat="45.73871" lon="5.6267">
        <ele>379</ele>
        <time>2020-01-15T20:24:44Z</time>
      </trkpt>
      <trkpt lat="45.73878" lon="5.62689">
        <ele>382</ele>
        <time>2020-01-15T20:24:47Z</time>
      </trkpt>
      <trkpt lat="45.73896" lon="5.62703">
        <ele>386</ele>
        <time>2020-01-15T20:24:52Z</time>
      </trkpt>
      <trkpt lat="45.73911" lon="5.62705">
        <ele>389</ele>
        <time>2020-01-15T20:24:55Z</time>
      </trkpt>
      <trkpt lat="45.73965" lon="5.62696">
        <ele>394</ele>
        <time>2020-01-15T20:25:08Z</time>
      </trkpt>
      <trkpt lat="45.7398" lon="5.62697">
        <ele>396</ele>
        <time>2020-01-15T20:25:12Z</time>
      </trkpt>
      <trkpt lat="45.74029" lon="5.62689">
        <ele>400</ele>
        <time>2020-01-15T20:25:23Z</time>
      </trkpt>
      <trkpt lat="45.74046" lon="5.62684">
        <ele>401</ele>
        <time>2020-01-15T20:25:27Z</time>
      </trkpt>
      <trkpt lat="45.74062" lon="5.62672">
        <ele>402</ele>
        <time>2020-01-15T20:25:31Z</time>
      </trkpt>
      <trkpt lat="45.74075" lon="5.62667">
        <ele>403</ele>
        <time>2020-01-15T20:25:35Z</time>
      </trkpt>
      <trkpt lat="45.74083" lon="5.6266">
        <ele>404</ele>
        <time>2020-01-15T20:25:37Z</time>
      </trkpt>
      <trkpt lat="45.74088" lon="5.62646">
        <ele>403</ele>
        <time>2020-01-15T20:25:39Z</time>
      </trkpt>
      <trkpt lat="45.74094" lon="5.62605">
        <ele>402</ele>
        <time>2020-01-15T20:25:46Z</time>
      </trkpt>
      <trkpt lat="45.74101" lon="5.62598">
        <ele>402</ele>
        <time>2020-01-15T20:25:48Z</time>
      </trkpt>
      <trkpt lat="45.74166" lon="5.62584">
        <ele>403</ele>
        <time>2020-01-15T20:26:03Z</time>
      </trkpt>
      <trkpt lat="45.74179" lon="5.62593">
        <ele>403</ele>
        <time>2020-01-15T20:26:07Z</time>
      </trkpt>
      <trkpt lat="45.74225" lon="5.62598">
        <ele>400</ele>
        <time>2020-01-15T20:26:18Z</time>
      </trkpt>
      <trkpt lat="45.74234" lon="5.62605">
        <ele>399</ele>
        <time>2020-01-15T20:26:20Z</time>
      </trkpt>
      <trkpt lat="45.74245" lon="5.62599">
        <ele>399</ele>
        <time>2020-01-15T20:26:23Z</time>
      </trkpt>
      <trkpt lat="45.7426" lon="5.62571">
        <ele>395</ele>
        <time>2020-01-15T20:26:28Z</time>
      </trkpt>
      <trkpt lat="45.74286" lon="5.62537">
        <ele>388</ele>
        <time>2020-01-15T20:26:37Z</time>
      </trkpt>
      <trkpt lat="45.74299" lon="5.62534">
        <ele>386</ele>
        <time>2020-01-15T20:26:40Z</time>
      </trkpt>
      <trkpt lat="45.74309" lon="5.62524">
        <ele>384</ele>
        <time>2020-01-15T20:26:43Z</time>
      </trkpt>
      <trkpt lat="45.74323" lon="5.62524">
        <ele>384</ele>
        <time>2020-01-15T20:26:46Z</time>
      </trkpt>
      <trkpt lat="45.74336" lon="5.62521">
        <ele>383</ele>
        <time>2020-01-15T20:26:49Z</time>
      </trkpt>
      <trkpt lat="45.74346" lon="5.62533">
        <ele>384</ele>
        <time>2020-01-15T20:26:52Z</time>
      </trkpt>
      <trkpt lat="45.74366" lon="5.62531">
        <ele>384</ele>
        <time>2020-01-15T20:26:57Z</time>
      </trkpt>
      <trkpt lat="45.74378" lon="5.62527">
        <ele>384</ele>
        <time>2020-01-15T20:27:00Z</time>
      </trkpt>
      <trkpt lat="45.74396" lon="5.62511">
        <ele>384</ele>
        <time>2020-01-15T20:27:05Z</time>
      </trkpt>
      <trkpt lat="45.74403" lon="5.6252">
        <ele>384</ele>
        <time>2020-01-15T20:27:07Z</time>
      </trkpt>
      <trkpt lat="45.74474" lon="5.6251">
        <ele>384</ele>
        <time>2020-01-15T20:27:23Z</time>
      </trkpt>
      <trkpt lat="45.74485" lon="5.62512">
        <ele>384</ele>
        <time>2020-01-15T20:27:26Z</time>
      </trkpt>
      <trkpt lat="45.74497" lon="5.62508">
        <ele>384</ele>
        <time>2020-01-15T20:27:29Z</time>
      </trkpt>
      <trkpt lat="45.74509" lon="5.62497">
        <ele>383</ele>
        <time>2020-01-15T20:27:32Z</time>
      </trkpt>
      <trkpt lat="45.74535" lon="5.62496">
        <ele>382</ele>
        <time>2020-01-15T20:27:38Z</time>
      </trkpt>
      <trkpt lat="45.74545" lon="5.62499">
        <ele>382</ele>
        <time>2020-01-15T20:27:41Z</time>
      </trkpt>
      <trkpt lat="45.74556" lon="5.62508">
        <ele>382</ele>
        <time>2020-01-15T20:27:44Z</time>
      </trkpt>
      <trkpt lat="45.74568" lon="5.62509">
        <ele>381</ele>
        <time>2020-01-15T20:27:46Z</time>
      </trkpt>
      <trkpt lat="45.74579" lon="5.62504">
        <ele>381</ele>
        <time>2020-01-15T20:27:49Z</time>
      </trkpt>
      <trkpt lat="45.74585" lon="5.6249">
        <ele>378</ele>
        <time>2020-01-15T20:27:52Z</time>
      </trkpt>
      <trkpt lat="45.74596" lon="5.62492">
        <ele>378</ele>
        <time>2020-01-15T20:27:54Z</time>
      </trkpt>
      <trkpt lat="45.74621" lon="5.62487">
        <ele>376</ele>
        <time>2020-01-15T20:28:00Z</time>
      </trkpt>
      <trkpt lat="45.7463" lon="5.625">
        <ele>379</ele>
        <time>2020-01-15T20:28:03Z</time>
      </trkpt>
      <trkpt lat="45.74667" lon="5.62502">
        <ele>378</ele>
        <time>2020-01-15T20:28:12Z</time>
      </trkpt>
      <trkpt lat="45.74672" lon="5.6249">
        <ele>376</ele>
        <time>2020-01-15T20:28:14Z</time>
      </trkpt>
      <trkpt lat="45.74682" lon="5.62483">
        <ele>374</ele>
        <time>2020-01-15T20:28:17Z</time>
      </trkpt>
      <trkpt lat="45.74699" lon="5.62501">
        <ele>378</ele>
        <time>2020-01-15T20:28:22Z</time>
      </trkpt>
      <trkpt lat="45.74712" lon="5.62498">
        <ele>378</ele>
        <time>2020-01-15T20:28:25Z</time>
      </trkpt>
      <trkpt lat="45.74726" lon="5.62507">
        <ele>377</ele>
        <time>2020-01-15T20:28:28Z</time>
      </trkpt>
      <trkpt lat="45.74733" lon="5.62524">
        <ele>376</ele>
        <time>2020-01-15T20:28:32Z</time>
      </trkpt>
      <trkpt lat="45.74747" lon="5.6253">
        <ele>375</ele>
        <time>2020-01-15T20:28:35Z</time>
      </trkpt>
      <trkpt lat="45.74773" lon="5.62521">
        <ele>375</ele>
        <time>2020-01-15T20:28:41Z</time>
      </trkpt>
      <trkpt lat="45.74782" lon="5.62511">
        <ele>376</ele>
        <time>2020-01-15T20:28:44Z</time>
      </trkpt>
      <trkpt lat="45.74806" lon="5.62498">
        <ele>375</ele>
        <time>2020-01-15T20:28:50Z</time>
      </trkpt>
      <trkpt lat="45.74813" lon="5.62501">
        <ele>375</ele>
        <time>2020-01-15T20:28:52Z</time>
      </trkpt>
      <trkpt lat="45.74827" lon="5.62487">
        <ele>371</ele>
        <time>2020-01-15T20:28:56Z</time>
      </trkpt>
      <trkpt lat="45.74831" lon="5.62478">
        <ele>369</ele>
        <time>2020-01-15T20:28:57Z</time>
      </trkpt>
      <trkpt lat="45.74838" lon="5.62483">
        <ele>370</ele>
        <time>2020-01-15T20:28:59Z</time>
      </trkpt>
      <trkpt lat="45.74846" lon="5.62481">
        <ele>369</ele>
        <time>2020-01-15T20:29:01Z</time>
      </trkpt>
      <trkpt lat="45.74855" lon="5.62485">
        <ele>370</ele>
        <time>2020-01-15T20:29:03Z</time>
      </trkpt>
      <trkpt lat="45.74887" lon="5.62487">
        <ele>371</ele>
        <time>2020-01-15T20:29:11Z</time>
      </trkpt>
      <trkpt lat="45.74895" lon="5.6249">
        <ele>371</ele>
        <time>2020-01-15T20:29:13Z</time>
      </trkpt>
      <trkpt lat="45.74917" lon="5.62484">
        <ele>370</ele>
        <time>2020-01-15T20:29:18Z</time>
      </trkpt>
      <trkpt lat="45.74923" lon="5.62477">
        <ele>368</ele>
        <time>2020-01-15T20:29:20Z</time>
      </trkpt>
      <trkpt lat="45.74929" lon="5.62474">
        <ele>367</ele>
        <time>2020-01-15T20:29:21Z</time>
      </trkpt>
      <trkpt lat="45.74933" lon="5.62478">
        <ele>368</ele>
        <time>2020-01-15T20:29:22Z</time>
      </trkpt>
      <trkpt lat="45.74942" lon="5.62479">
        <ele>368</ele>
        <time>2020-01-15T20:29:24Z</time>
      </trkpt>
      <trkpt lat="45.74948" lon="5.62474">
        <ele>367</ele>
        <time>2020-01-15T20:29:26Z</time>
      </trkpt>
      <trkpt lat="45.74954" lon="5.62473">
        <ele>367</ele>
        <time>2020-01-15T20:29:27Z</time>
      </trkpt>
      <trkpt lat="45.74962" lon="5.62461">
        <ele>363</ele>
        <time>2020-01-15T20:29:30Z</time>
      </trkpt>
      <trkpt lat="45.74974" lon="5.62465">
        <ele>364</ele>
        <time>2020-01-15T20:29:33Z</time>
      </trkpt>
      <trkpt lat="45.7498" lon="5.62472">
        <ele>366</ele>
        <time>2020-01-15T20:29:35Z</time>
      </trkpt>
      <trkpt lat="45.74992" lon="5.62474">
        <ele>367</ele>
        <time>2020-01-15T20:29:38Z</time>
      </trkpt>
      <trkpt lat="45.75009" lon="5.62472">
        <ele>367</ele>
        <time>2020-01-15T20:29:42Z</time>
      </trkpt>
      <trkpt lat="45.75018" lon="5.62476">
        <ele>368</ele>
        <time>2020-01-15T20:29:44Z</time>
      </trkpt>
      <trkpt lat="45.75024" lon="5.62472">
        <ele>367</ele>
        <time>2020-01-15T20:29:45Z</time>
      </trkpt>
      <trkpt lat="45.75031" lon="5.62475">
        <ele>368</ele>
        <time>2020-01-15T20:29:47Z</time>
      </trkpt>
      <trkpt lat="45.75046" lon="5.62473">
        <ele>368</ele>
        <time>2020-01-15T20:29:51Z</time>
      </trkpt>
      <trkpt lat="45.75052" lon="5.6248">
        <ele>371</ele>
        <time>2020-01-15T20:29:52Z</time>
      </trkpt>
      <trkpt lat="45.75044" lon="5.62526">
        <ele>377</ele>
        <time>2020-01-15T20:30:00Z</time>
      </trkpt>
      <trkpt lat="45.75066" lon="5.6256">
        <ele>379</ele>
        <time>2020-01-15T20:30:08Z</time>
      </trkpt>
      <trkpt lat="45.75136" lon="5.6256">
        <ele>379</ele>
        <time>2020-01-15T20:30:24Z</time>
      </trkpt>
      <trkpt lat="45.7512" lon="5.62609">
        <ele>380</ele>
        <time>2020-01-15T20:30:33Z</time>
      </trkpt>
      <trkpt lat="45.7512" lon="5.62626">
        <ele>381</ele>
        <time>2020-01-15T20:30:36Z</time>
      </trkpt>
      <trkpt lat="45.75134" lon="5.62674">
        <ele>381</ele>
        <time>2020-01-15T20:30:44Z</time>
      </trkpt>
      <trkpt lat="45.75132" lon="5.62722">
        <ele>382</ele>
        <time>2020-01-15T20:30:52Z</time>
      </trkpt>
      <trkpt lat="45.75124" lon="5.62746">
        <ele>382</ele>
        <time>2020-01-15T20:30:56Z</time>
      </trkpt>
      <trkpt lat="45.75146" lon="5.62748">
        <ele>381</ele>
        <time>2020-01-15T20:31:01Z</time>
      </trkpt>
      <trkpt lat="45.75175" lon="5.62748">
        <ele>380</ele>
        <time>2020-01-15T20:31:08Z</time>
      </trkpt>
      <trkpt lat="45.75191" lon="5.62745">
        <ele>381</ele>
        <time>2020-01-15T20:31:12Z</time>
      </trkpt>
      <trkpt lat="45.75209" lon="5.6273">
        <ele>382</ele>
        <time>2020-01-15T20:31:17Z</time>
      </trkpt>
      <trkpt lat="45.75268" lon="5.62734">
        <ele>384</ele>
        <time>2020-01-15T20:31:31Z</time>
      </trkpt>
      <trkpt lat="45.75316" lon="5.62725">
        <ele>384</ele>
        <time>2020-01-15T20:31:42Z</time>
      </trkpt>
      <trkpt lat="45.75343" lon="5.62716">
        <ele>384</ele>
        <time>2020-01-15T20:31:48Z</time>
      </trkpt>
      <trkpt lat="45.75393" lon="5.62694">
        <ele>383</ele>
        <time>2020-01-15T20:32:01Z</time>
      </trkpt>
      <trkpt lat="45.75466" lon="5.62647">
        <ele>380</ele>
        <time>2020-01-15T20:32:19Z</time>
      </trkpt>
      <trkpt lat="45.75481" lon="5.62641">
        <ele>379</ele>
        <time>2020-01-15T20:32:23Z</time>
      </trkpt>
      <trkpt lat="45.75505" lon="5.62639">
        <ele>379</ele>
        <time>2020-01-15T20:32:29Z</time>
      </trkpt>
      <trkpt lat="45.75529" lon="5.62645">
        <ele>378</ele>
        <time>2020-01-15T20:32:34Z</time>
      </trkpt>
      <trkpt lat="45.75544" lon="5.62645">
        <ele>377</ele>
        <time>2020-01-15T20:32:38Z</time>
      </trkpt>
      <trkpt lat="45.75564" lon="5.62642">
        <ele>375</ele>
        <time>2020-01-15T20:32:42Z</time>
      </trkpt>
      <trkpt lat="45.75636" lon="5.62623">
        <ele>369</ele>
        <time>2020-01-15T20:33:00Z</time>
      </trkpt>
      <trkpt lat="45.75751" lon="5.62559">
        <ele>365</ele>
        <time>2020-01-15T20:33:28Z</time>
      </trkpt>
      <trkpt lat="45.75796" lon="5.62555">
        <ele>364</ele>
        <time>2020-01-15T20:33:39Z</time>
      </trkpt>
      <trkpt lat="45.7588" lon="5.62572">
        <ele>364</ele>
        <time>2020-01-15T20:33:59Z</time>
      </trkpt>
      <trkpt lat="45.7591" lon="5.62582">
        <ele>364</ele>
        <time>2020-01-15T20:34:06Z</time>
      </trkpt>
      <trkpt lat="45.7592" lon="5.6258">
        <ele>363</ele>
        <time>2020-01-15T20:34:08Z</time>
      </trkpt>
      <trkpt lat="45.75941" lon="5.62564">
        <ele>359</ele>
        <time>2020-01-15T20:34:14Z</time>
      </trkpt>
      <trkpt lat="45.75953" lon="5.62561">
        <ele>358</ele>
        <time>2020-01-15T20:34:17Z</time>
      </trkpt>
      <trkpt lat="45.7597" lon="5.62561">
        <ele>357</ele>
        <time>2020-01-15T20:34:21Z</time>
      </trkpt>
      <trkpt lat="45.76018" lon="5.62569">
        <ele>355</ele>
        <time>2020-01-15T20:34:32Z</time>
      </trkpt>
      <trkpt lat="45.76032" lon="5.62574">
        <ele>354</ele>
        <time>2020-01-15T20:34:35Z</time>
      </trkpt>
      <trkpt lat="45.76076" lon="5.62608">
        <ele>354</ele>
        <time>2020-01-15T20:34:47Z</time>
      </trkpt>
      <trkpt lat="45.76101" lon="5.62639">
        <ele>354</ele>
        <time>2020-01-15T20:34:55Z</time>
      </trkpt>
      <trkpt lat="45.7612" lon="5.62651">
        <ele>353</ele>
        <time>2020-01-15T20:35:00Z</time>
      </trkpt>
      <trkpt lat="45.76159" lon="5.62683">
        <ele>352</ele>
        <time>2020-01-15T20:35:10Z</time>
      </trkpt>
      <trkpt lat="45.76166" lon="5.62695">
        <ele>352</ele>
        <time>2020-01-15T20:35:13Z</time>
      </trkpt>
      <trkpt lat="45.76175" lon="5.62738">
        <ele>355</ele>
        <time>2020-01-15T20:35:20Z</time>
      </trkpt>
      <trkpt lat="45.7618" lon="5.62749">
        <ele>355</ele>
        <time>2020-01-15T20:35:22Z</time>
      </trkpt>
      <trkpt lat="45.76212" lon="5.6277">
        <ele>353</ele>
        <time>2020-01-15T20:35:30Z</time>
      </trkpt>
      <trkpt lat="45.76226" lon="5.62776">
        <ele>352</ele>
        <time>2020-01-15T20:35:34Z</time>
      </trkpt>
      <trkpt lat="45.76246" lon="5.62791">
        <ele>351</ele>
        <time>2020-01-15T20:35:39Z</time>
      </trkpt>
      <trkpt lat="45.76253" lon="5.62791">
        <ele>350</ele>
        <time>2020-01-15T20:35:41Z</time>
      </trkpt>
      <trkpt lat="45.76259" lon="5.62835">
        <ele>351</ele>
        <time>2020-01-15T20:35:48Z</time>
      </trkpt>
      <trkpt lat="45.76259" lon="5.6287">
        <ele>351</ele>
        <time>2020-01-15T20:35:54Z</time>
      </trkpt>
      <trkpt lat="45.76254" lon="5.62877">
        <ele>351</ele>
        <time>2020-01-15T20:35:55Z</time>
      </trkpt>
      <trkpt lat="45.76234" lon="5.62882">
        <ele>352</ele>
        <time>2020-01-15T20:36:00Z</time>
      </trkpt>
      <trkpt lat="45.76204" lon="5.629">
        <ele>353</ele>
        <time>2020-01-15T20:36:08Z</time>
      </trkpt>
      <trkpt lat="45.76174" lon="5.62932">
        <ele>353</ele>
        <time>2020-01-15T20:36:16Z</time>
      </trkpt>
      <trkpt lat="45.76163" lon="5.62967">
        <ele>353</ele>
        <time>2020-01-15T20:36:23Z</time>
      </trkpt>
      <trkpt lat="45.76163" lon="5.62997">
        <ele>353</ele>
        <time>2020-01-15T20:36:27Z</time>
      </trkpt>
      <trkpt lat="45.76167" lon="5.63014">
        <ele>353</ele>
        <time>2020-01-15T20:36:30Z</time>
      </trkpt>
      <trkpt lat="45.76166" lon="5.63031">
        <ele>355</ele>
        <time>2020-01-15T20:36:33Z</time>
      </trkpt>
      <trkpt lat="45.76161" lon="5.6304">
        <ele>356</ele>
        <time>2020-01-15T20:36:35Z</time>
      </trkpt>
      <trkpt lat="45.7616" lon="5.6307">
        <ele>359</ele>
        <time>2020-01-15T20:36:40Z</time>
      </trkpt>
      <trkpt lat="45.76161" lon="5.63085">
        <ele>360</ele>
        <time>2020-01-15T20:36:42Z</time>
      </trkpt>
      <trkpt lat="45.76165" lon="5.63098">
        <ele>360</ele>
        <time>2020-01-15T20:36:45Z</time>
      </trkpt>
      <trkpt lat="45.76171" lon="5.63108">
        <ele>361</ele>
        <time>2020-01-15T20:36:47Z</time>
      </trkpt>
      <trkpt lat="45.76192" lon="5.63111">
        <ele>360</ele>
        <time>2020-01-15T20:36:52Z</time>
      </trkpt>
      <trkpt lat="45.76211" lon="5.63106">
        <ele>359</ele>
        <time>2020-01-15T20:36:56Z</time>
      </trkpt>
      <trkpt lat="45.76233" lon="5.63104">
        <ele>357</ele>
        <time>2020-01-15T20:37:01Z</time>
      </trkpt>
      <trkpt lat="45.76268" lon="5.63107">
        <ele>357</ele>
        <time>2020-01-15T20:37:10Z</time>
      </trkpt>
      <trkpt lat="45.76281" lon="5.63113">
        <ele>357</ele>
        <time>2020-01-15T20:37:13Z</time>
      </trkpt>
      <trkpt lat="45.76302" lon="5.63128">
        <ele>358</ele>
        <time>2020-01-15T20:37:18Z</time>
      </trkpt>
      <trkpt lat="45.76311" lon="5.63141">
        <ele>358</ele>
        <time>2020-01-15T20:37:21Z</time>
      </trkpt>
      <trkpt lat="45.76334" lon="5.63164">
        <ele>358</ele>
        <time>2020-01-15T20:37:28Z</time>
      </trkpt>
      <trkpt lat="45.76347" lon="5.63184">
        <ele>357</ele>
        <time>2020-01-15T20:37:32Z</time>
      </trkpt>
      <trkpt lat="45.76357" lon="5.63214">
        <ele>354</ele>
        <time>2020-01-15T20:37:38Z</time>
      </trkpt>
      <trkpt lat="45.76363" lon="5.63221">
        <ele>354</ele>
        <time>2020-01-15T20:37:39Z</time>
      </trkpt>
      <trkpt lat="45.76372" lon="5.63225">
        <ele>354</ele>
        <time>2020-01-15T20:37:42Z</time>
      </trkpt>
      <trkpt lat="45.76426" lon="5.63226">
        <ele>354</ele>
        <time>2020-01-15T20:37:54Z</time>
      </trkpt>
      <trkpt lat="45.76435" lon="5.6323">
        <ele>353</ele>
        <time>2020-01-15T20:37:56Z</time>
      </trkpt>
      <trkpt lat="45.76441" lon="5.63264">
        <ele>351</ele>
        <time>2020-01-15T20:38:02Z</time>
      </trkpt>
      <trkpt lat="45.76448" lon="5.63283">
        <ele>350</ele>
        <time>2020-01-15T20:38:06Z</time>
      </trkpt>
      <trkpt lat="45.76446" lon="5.633">
        <ele>349</ele>
        <time>2020-01-15T20:38:08Z</time>
      </trkpt>
      <trkpt lat="45.76451" lon="5.63453">
        <ele>351</ele>
        <time>2020-01-15T20:38:33Z</time>
      </trkpt>
      <trkpt lat="45.76445" lon="5.6347">
        <ele>351</ele>
        <time>2020-01-15T20:38:37Z</time>
      </trkpt>
      <trkpt lat="45.76411" lon="5.63507">
        <ele>347</ele>
        <time>2020-01-15T20:38:46Z</time>
      </trkpt>
      <trkpt lat="45.76406" lon="5.6352">
        <ele>346</ele>
        <time>2020-01-15T20:38:49Z</time>
      </trkpt>
      <trkpt lat="45.76405" lon="5.63537">
        <ele>346</ele>
        <time>2020-01-15T20:38:52Z</time>
      </trkpt>
      <trkpt lat="45.76407" lon="5.63552">
        <ele>346</ele>
        <time>2020-01-15T20:38:54Z</time>
      </trkpt>
      <trkpt lat="45.76419" lon="5.63596">
        <ele>346</ele>
        <time>2020-01-15T20:39:02Z</time>
      </trkpt>
      <trkpt lat="45.76423" lon="5.63623">
        <ele>346</ele>
        <time>2020-01-15T20:39:06Z</time>
      </trkpt>
      <trkpt lat="45.76426" lon="5.63647">
        <ele>345</ele>
        <time>2020-01-15T20:39:10Z</time>
      </trkpt>
      <trkpt lat="45.76424" lon="5.63666">
        <ele>344</ele>
        <time>2020-01-15T20:39:13Z</time>
      </trkpt>
      <trkpt lat="45.7641" lon="5.63702">
        <ele>344</ele>
        <time>2020-01-15T20:39:20Z</time>
      </trkpt>
      <trkpt lat="45.76345" lon="5.63824">
        <ele>346</ele>
        <time>2020-01-15T20:39:45Z</time>
      </trkpt>
      <trkpt lat="45.76332" lon="5.63854">
        <ele>348</ele>
        <time>2020-01-15T20:39:51Z</time>
      </trkpt>
      <trkpt lat="45.76328" lon="5.63872">
        <ele>350</ele>
        <time>2020-01-15T20:39:54Z</time>
      </trkpt>
      <trkpt lat="45.76323" lon="5.63947">
        <ele>355</ele>
        <time>2020-01-15T20:40:06Z</time>
      </trkpt>
      <trkpt lat="45.76326" lon="5.64011">
        <ele>355</ele>
        <time>2020-01-15T20:40:17Z</time>
      </trkpt>
      <trkpt lat="45.76332" lon="5.64027">
        <ele>354</ele>
        <time>2020-01-15T20:40:20Z</time>
      </trkpt>
      <trkpt lat="45.76349" lon="5.64051">
        <ele>352</ele>
        <time>2020-01-15T20:40:25Z</time>
      </trkpt>
      <trkpt lat="45.76366" lon="5.64114">
        <ele>346</ele>
        <time>2020-01-15T20:40:36Z</time>
      </trkpt>
      <trkpt lat="45.76381" lon="5.64183">
        <ele>338</ele>
        <time>2020-01-15T20:40:48Z</time>
      </trkpt>
      <trkpt lat="45.76381" lon="5.64215">
        <ele>335</ele>
        <time>2020-01-15T20:40:53Z</time>
      </trkpt>
      <trkpt lat="45.76362" lon="5.64305">
        <ele>331</ele>
        <time>2020-01-15T20:41:09Z</time>
      </trkpt>
      <trkpt lat="45.76291" lon="5.64375">
        <ele>326</ele>
        <time>2020-01-15T20:41:29Z</time>
      </trkpt>
      <trkpt lat="45.76279" lon="5.64391">
        <ele>326</ele>
        <time>2020-01-15T20:41:33Z</time>
      </trkpt>
      <trkpt lat="45.76272" lon="5.64413">
        <ele>326</ele>
        <time>2020-01-15T20:41:36Z</time>
      </trkpt>
      <trkpt lat="45.76276" lon="5.64441">
        <ele>326</ele>
        <time>2020-01-15T20:41:41Z</time>
      </trkpt>
      <trkpt lat="45.76284" lon="5.6446">
        <ele>325</ele>
        <time>2020-01-15T20:41:45Z</time>
      </trkpt>
      <trkpt lat="45.76297" lon="5.64474">
        <ele>325</ele>
        <time>2020-01-15T20:41:49Z</time>
      </trkpt>
      <trkpt lat="45.76327" lon="5.64493">
        <ele>324</ele>
        <time>2020-01-15T20:41:56Z</time>
      </trkpt>
      <trkpt lat="45.76349" lon="5.64499">
        <ele>323</ele>
        <time>2020-01-15T20:42:01Z</time>
      </trkpt>
      <trkpt lat="45.76374" lon="5.645">
        <ele>322</ele>
        <time>2020-01-15T20:42:07Z</time>
      </trkpt>
      <trkpt lat="45.76436" lon="5.64497">
        <ele>319</ele>
        <time>2020-01-15T20:42:22Z</time>
      </trkpt>
      <trkpt lat="45.76471" lon="5.64498">
        <ele>316</ele>
        <time>2020-01-15T20:42:30Z</time>
      </trkpt>
      <trkpt lat="45.76502" lon="5.64511">
        <ele>312</ele>
        <time>2020-01-15T20:42:37Z</time>
      </trkpt>
      <trkpt lat="45.76509" lon="5.64521">
        <ele>311</ele>
        <time>2020-01-15T20:42:40Z</time>
      </trkpt>
      <trkpt lat="45.76515" lon="5.64536">
        <ele>310</ele>
        <time>2020-01-15T20:42:43Z</time>
      </trkpt>
      <trkpt lat="45.76521" lon="5.6458">
        <ele>305</ele>
        <time>2020-01-15T20:42:50Z</time>
      </trkpt>
      <trkpt lat="45.76522" lon="5.64623">
        <ele>303</ele>
        <time>2020-01-15T20:42:57Z</time>
      </trkpt>
      <trkpt lat="45.76518" lon="5.64655">
        <ele>302</ele>
        <time>2020-01-15T20:43:02Z</time>
      </trkpt>
      <trkpt lat="45.7651" lon="5.64671">
        <ele>300</ele>
        <time>2020-01-15T20:43:05Z</time>
      </trkpt>
      <trkpt lat="45.76496" lon="5.64681">
        <ele>299</ele>
        <time>2020-01-15T20:43:09Z</time>
      </trkpt>
      <trkpt lat="45.76451" lon="5.64699">
        <ele>299</ele>
        <time>2020-01-15T20:43:20Z</time>
      </trkpt>
      <trkpt lat="45.76423" lon="5.64706">
        <ele>299</ele>
        <time>2020-01-15T20:43:27Z</time>
      </trkpt>
      <trkpt lat="45.76398" lon="5.64718">
        <ele>299</ele>
        <time>2020-01-15T20:43:33Z</time>
      </trkpt>
      <trkpt lat="45.76368" lon="5.64742">
        <ele>300</ele>
        <time>2020-01-15T20:43:41Z</time>
      </trkpt>
      <trkpt lat="45.7635" lon="5.64777">
        <ele>296</ele>
        <time>2020-01-15T20:43:48Z</time>
      </trkpt>
      <trkpt lat="45.76343" lon="5.64814">
        <ele>291</ele>
        <time>2020-01-15T20:43:54Z</time>
      </trkpt>
      <trkpt lat="45.76338" lon="5.64827">
        <ele>288</ele>
        <time>2020-01-15T20:43:57Z</time>
      </trkpt>
      <trkpt lat="45.7633" lon="5.64838">
        <ele>287</ele>
        <time>2020-01-15T20:43:59Z</time>
      </trkpt>
      <trkpt lat="45.76321" lon="5.64847">
        <ele>288</ele>
        <time>2020-01-15T20:44:02Z</time>
      </trkpt>
      <trkpt lat="45.76298" lon="5.64857">
        <ele>289</ele>
        <time>2020-01-15T20:44:07Z</time>
      </trkpt>
      <trkpt lat="45.76222" lon="5.64907">
        <ele>286</ele>
        <time>2020-01-15T20:44:27Z</time>
      </trkpt>
      <trkpt lat="45.76212" lon="5.64917">
        <ele>285</ele>
        <time>2020-01-15T20:44:30Z</time>
      </trkpt>
      <trkpt lat="45.76205" lon="5.64932">
        <ele>284</ele>
        <time>2020-01-15T20:44:33Z</time>
      </trkpt>
      <trkpt lat="45.76202" lon="5.64969">
        <ele>281</ele>
        <time>2020-01-15T20:44:39Z</time>
      </trkpt>
      <trkpt lat="45.76204" lon="5.64988">
        <ele>279</ele>
        <time>2020-01-15T20:44:42Z</time>
      </trkpt>
      <trkpt lat="45.7621" lon="5.65011">
        <ele>277</ele>
        <time>2020-01-15T20:44:46Z</time>
      </trkpt>
      <trkpt lat="45.76211" lon="5.65031">
        <ele>276</ele>
        <time>2020-01-15T20:44:49Z</time>
      </trkpt>
      <trkpt lat="45.76208" lon="5.65048">
        <ele>275</ele>
        <time>2020-01-15T20:44:52Z</time>
      </trkpt>
      <trkpt lat="45.76189" lon="5.65093">
        <ele>269</ele>
        <time>2020-01-15T20:45:01Z</time>
      </trkpt>
      <trkpt lat="45.76184" lon="5.65166">
        <ele>264</ele>
        <time>2020-01-15T20:45:12Z</time>
      </trkpt>
      <trkpt lat="45.76186" lon="5.65182">
        <ele>262</ele>
        <time>2020-01-15T20:45:15Z</time>
      </trkpt>
      <trkpt lat="45.76191" lon="5.65196">
        <ele>261</ele>
        <time>2020-01-15T20:45:18Z</time>
      </trkpt>
      <trkpt lat="45.76221" lon="5.65241">
        <ele>259</ele>
        <time>2020-01-15T20:45:28Z</time>
      </trkpt>
      <trkpt lat="45.76298" lon="5.65329">
        <ele>248</ele>
        <time>2020-01-15T20:45:51Z</time>
      </trkpt>
      <trkpt lat="45.76303" lon="5.65339">
        <ele>247</ele>
        <time>2020-01-15T20:45:53Z</time>
      </trkpt>
      <trkpt lat="45.763" lon="5.65369">
        <ele>244</ele>
        <time>2020-01-15T20:45:58Z</time>
      </trkpt>
      <trkpt lat="45.76292" lon="5.65386">
        <ele>241</ele>
        <time>2020-01-15T20:46:01Z</time>
      </trkpt>
      <trkpt lat="45.76274" lon="5.654">
        <ele>239</ele>
        <time>2020-01-15T20:46:06Z</time>
      </trkpt>
      <trkpt lat="45.76214" lon="5.65424">
        <ele>235</ele>
        <time>2020-01-15T20:46:20Z</time>
      </trkpt>
      <trkpt lat="45.76164" lon="5.65441">
        <ele>233</ele>
        <time>2020-01-15T20:46:32Z</time>
      </trkpt>
      <trkpt lat="45.76124" lon="5.65459">
        <ele>232</ele>
        <time>2020-01-15T20:46:42Z</time>
      </trkpt>
      <trkpt lat="45.7611" lon="5.65468">
        <ele>232</ele>
        <time>2020-01-15T20:46:46Z</time>
      </trkpt>
      <trkpt lat="45.76098" lon="5.6548">
        <ele>232</ele>
        <time>2020-01-15T20:46:49Z</time>
      </trkpt>
      <trkpt lat="45.76084" lon="5.65525">
        <ele>230</ele>
        <time>2020-01-15T20:46:57Z</time>
      </trkpt>
      <trkpt lat="45.76058" lon="5.65686">
        <ele>227</ele>
        <time>2020-01-15T20:47:24Z</time>
      </trkpt>
      <trkpt lat="45.76053" lon="5.65739">
        <ele>227</ele>
        <time>2020-01-15T20:47:33Z</time>
      </trkpt>
      <trkpt lat="45.76035" lon="5.65795">
        <ele>228</ele>
        <time>2020-01-15T20:47:43Z</time>
      </trkpt>
      <trkpt lat="45.76011" lon="5.65855">
        <ele>228</ele>
        <time>2020-01-15T20:47:54Z</time>
      </trkpt>
      <trkpt lat="45.75998" lon="5.65896">
        <ele>228</ele>
        <time>2020-01-15T20:48:02Z</time>
      </trkpt>
      <trkpt lat="45.75992" lon="5.65919">
        <ele>228</ele>
        <time>2020-01-15T20:48:06Z</time>
      </trkpt>
      <trkpt lat="45.75988" lon="5.65948">
        <ele>229</ele>
        <time>2020-01-15T20:48:10Z</time>
      </trkpt>
      <trkpt lat="45.75988" lon="5.65979">
        <ele>230</ele>
        <time>2020-01-15T20:48:15Z</time>
      </trkpt>
      <trkpt lat="45.75994" lon="5.66152">
        <ele>233</ele>
        <time>2020-01-15T20:48:44Z</time>
      </trkpt>
      <trkpt lat="45.76028" lon="5.66213">
        <ele>234</ele>
        <time>2020-01-15T20:48:56Z</time>
      </trkpt>
      <trkpt lat="45.76062" lon="5.66263">
        <ele>235</ele>
        <time>2020-01-15T20:49:08Z</time>
      </trkpt>
      <trkpt lat="45.76094" lon="5.66305">
        <ele>238</ele>
        <time>2020-01-15T20:49:18Z</time>
      </trkpt>
      <trkpt lat="45.76122" lon="5.66321">
        <ele>240</ele>
        <time>2020-01-15T20:49:25Z</time>
      </trkpt>
      <trkpt lat="45.76148" lon="5.66332">
        <ele>243</ele>
        <time>2020-01-15T20:49:31Z</time>
      </trkpt>
      <trkpt lat="45.76155" lon="5.66347">
        <ele>244</ele>
        <time>2020-01-15T20:49:34Z</time>
      </trkpt>
      <trkpt lat="45.7617" lon="5.66413">
        <ele>249</ele>
        <time>2020-01-15T20:49:45Z</time>
      </trkpt>
      <trkpt lat="45.76186" lon="5.66446">
        <ele>251</ele>
        <time>2020-01-15T20:49:52Z</time>
      </trkpt>
      <trkpt lat="45.76197" lon="5.6646">
        <ele>253</ele>
        <time>2020-01-15T20:49:55Z</time>
      </trkpt>
      <trkpt lat="45.76213" lon="5.66474">
        <ele>254</ele>
        <time>2020-01-15T20:50:00Z</time>
      </trkpt>
      <trkpt lat="45.7623" lon="5.66484">
        <ele>255</ele>
        <time>2020-01-15T20:50:04Z</time>
      </trkpt>
      <trkpt lat="45.7624" lon="5.66488">
        <ele>256</ele>
        <time>2020-01-15T20:50:07Z</time>
      </trkpt>
      <trkpt lat="45.76253" lon="5.66486">
        <ele>257</ele>
        <time>2020-01-15T20:50:10Z</time>
      </trkpt>
      <trkpt lat="45.76291" lon="5.66456">
        <ele>259</ele>
        <time>2020-01-15T20:50:20Z</time>
      </trkpt>
      <trkpt lat="45.76324" lon="5.66445">
        <ele>262</ele>
        <time>2020-01-15T20:50:28Z</time>
      </trkpt>
      <trkpt lat="45.76357" lon="5.66413">
        <ele>262</ele>
        <time>2020-01-15T20:50:37Z</time>
      </trkpt>
      <trkpt lat="45.76376" lon="5.66403">
        <ele>262</ele>
        <time>2020-01-15T20:50:42Z</time>
      </trkpt>
      <trkpt lat="45.76435" lon="5.66379">
        <ele>263</ele>
        <time>2020-01-15T20:50:56Z</time>
      </trkpt>
      <trkpt lat="45.76478" lon="5.66375">
        <ele>264</ele>
        <time>2020-01-15T20:51:06Z</time>
      </trkpt>
      <trkpt lat="45.76488" lon="5.66381">
        <ele>265</ele>
        <time>2020-01-15T20:51:09Z</time>
      </trkpt>
      <trkpt lat="45.76498" lon="5.66395">
        <ele>267</ele>
        <time>2020-01-15T20:51:12Z</time>
      </trkpt>
      <trkpt lat="45.76512" lon="5.66409">
        <ele>269</ele>
        <time>2020-01-15T20:51:16Z</time>
      </trkpt>
      <trkpt lat="45.76518" lon="5.66452">
        <ele>270</ele>
        <time>2020-01-15T20:51:23Z</time>
      </trkpt>
      <trkpt lat="45.76521" lon="5.66501">
        <ele>269</ele>
        <time>2020-01-15T20:51:31Z</time>
      </trkpt>
      <trkpt lat="45.76512" lon="5.66549">
        <ele>270</ele>
        <time>2020-01-15T20:51:39Z</time>
      </trkpt>
      <trkpt lat="45.7649" lon="5.66612">
        <ele>272</ele>
        <time>2020-01-15T20:51:51Z</time>
      </trkpt>
      <trkpt lat="45.76482" lon="5.66627">
        <ele>272</ele>
        <time>2020-01-15T20:51:54Z</time>
      </trkpt>
      <trkpt lat="45.76467" lon="5.66646">
        <ele>272</ele>
        <time>2020-01-15T20:51:58Z</time>
      </trkpt>
      <trkpt lat="45.76401" lon="5.66703">
        <ele>273</ele>
        <time>2020-01-15T20:52:16Z</time>
      </trkpt>
      <trkpt lat="45.76388" lon="5.66719">
        <ele>274</ele>
        <time>2020-01-15T20:52:20Z</time>
      </trkpt>
      <trkpt lat="45.76334" lon="5.66805">
        <ele>278</ele>
        <time>2020-01-15T20:52:39Z</time>
      </trkpt>
      <trkpt lat="45.76275" lon="5.66823">
        <ele>279</ele>
        <time>2020-01-15T20:52:53Z</time>
      </trkpt>
      <trkpt lat="45.76216" lon="5.66845">
        <ele>279</ele>
        <time>2020-01-15T20:53:08Z</time>
      </trkpt>
      <trkpt lat="45.76183" lon="5.66854">
        <ele>279</ele>
        <time>2020-01-15T20:53:15Z</time>
      </trkpt>
      <trkpt lat="45.7615" lon="5.6688">
        <ele>278</ele>
        <time>2020-01-15T20:53:24Z</time>
      </trkpt>
      <trkpt lat="45.76108" lon="5.66922">
        <ele>277</ele>
        <time>2020-01-15T20:53:36Z</time>
      </trkpt>
      <trkpt lat="45.76051" lon="5.66993">
        <ele>276</ele>
        <time>2020-01-15T20:53:54Z</time>
      </trkpt>
      <trkpt lat="45.76037" lon="5.67004">
        <ele>276</ele>
        <time>2020-01-15T20:53:57Z</time>
      </trkpt>
      <trkpt lat="45.76004" lon="5.67019">
        <ele>274</ele>
        <time>2020-01-15T20:54:06Z</time>
      </trkpt>
      <trkpt lat="45.75987" lon="5.6703">
        <ele>274</ele>
        <time>2020-01-15T20:54:10Z</time>
      </trkpt>
      <trkpt lat="45.75974" lon="5.67043">
        <ele>274</ele>
        <time>2020-01-15T20:54:14Z</time>
      </trkpt>
      <trkpt lat="45.75941" lon="5.67086">
        <ele>275</ele>
        <time>2020-01-15T20:54:24Z</time>
      </trkpt>
      <trkpt lat="45.75866" lon="5.67204">
        <ele>281</ele>
        <time>2020-01-15T20:54:50Z</time>
      </trkpt>
      <trkpt lat="45.75856" lon="5.67222">
        <ele>281</ele>
        <time>2020-01-15T20:54:54Z</time>
      </trkpt>
      <trkpt lat="45.75838" lon="5.67281">
        <ele>282</ele>
        <time>2020-01-15T20:55:04Z</time>
      </trkpt>
      <trkpt lat="45.75826" lon="5.67303">
        <ele>282</ele>
        <time>2020-01-15T20:55:09Z</time>
      </trkpt>
      <trkpt lat="45.75814" lon="5.67307">
        <ele>281</ele>
        <time>2020-01-15T20:55:12Z</time>
      </trkpt>
      <trkpt lat="45.75771" lon="5.67305">
        <ele>279</ele>
        <time>2020-01-15T20:55:22Z</time>
      </trkpt>
      <trkpt lat="45.75755" lon="5.67302">
        <ele>278</ele>
        <time>2020-01-15T20:55:26Z</time>
      </trkpt>
      <trkpt lat="45.75741" lon="5.67291">
        <ele>277</ele>
        <time>2020-01-15T20:55:29Z</time>
      </trkpt>
      <trkpt lat="45.7573" lon="5.67314">
        <ele>278</ele>
        <time>2020-01-15T20:55:34Z</time>
      </trkpt>
      <trkpt lat="45.75653" lon="5.67428">
        <ele>283</ele>
        <time>2020-01-15T20:56:00Z</time>
      </trkpt>
      <trkpt lat="45.75618" lon="5.67487">
        <ele>284</ele>
        <time>2020-01-15T20:56:12Z</time>
      </trkpt>
      <trkpt lat="45.75591" lon="5.67547">
        <ele>283</ele>
        <time>2020-01-15T20:56:24Z</time>
      </trkpt>
      <trkpt lat="45.75569" lon="5.67625">
        <ele>283</ele>
        <time>2020-01-15T20:56:38Z</time>
      </trkpt>
      <trkpt lat="45.75542" lon="5.67701">
        <ele>283</ele>
        <time>2020-01-15T20:56:52Z</time>
      </trkpt>
      <trkpt lat="45.75534" lon="5.67745">
        <ele>284</ele>
        <time>2020-01-15T20:56:59Z</time>
      </trkpt>
      <trkpt lat="45.75536" lon="5.67867">
        <ele>285</ele>
        <time>2020-01-15T20:57:19Z</time>
      </trkpt>
      <trkpt lat="45.75533" lon="5.67891">
        <ele>286</ele>
        <time>2020-01-15T20:57:23Z</time>
      </trkpt>
      <trkpt lat="45.75521" lon="5.67944">
        <ele>288</ele>
        <time>2020-01-15T20:57:32Z</time>
      </trkpt>
      <trkpt lat="45.75487" lon="5.6803">
        <ele>291</ele>
        <time>2020-01-15T20:57:48Z</time>
      </trkpt>
      <trkpt lat="45.75478" lon="5.68044">
        <ele>291</ele>
        <time>2020-01-15T20:57:51Z</time>
      </trkpt>
      <trkpt lat="45.7547" lon="5.68051">
        <ele>291</ele>
        <time>2020-01-15T20:57:53Z</time>
      </trkpt>
      <trkpt lat="45.7547" lon="5.68065">
        <ele>291</ele>
        <time>2020-01-15T20:57:56Z</time>
      </trkpt>
      <trkpt lat="45.75544" lon="5.68122">
        <ele>290</ele>
        <time>2020-01-15T20:58:15Z</time>
      </trkpt>
      <trkpt lat="45.75572" lon="5.68147">
        <ele>289</ele>
        <time>2020-01-15T20:58:23Z</time>
      </trkpt>
      <trkpt lat="45.75603" lon="5.68166">
        <ele>289</ele>
        <time>2020-01-15T20:58:31Z</time>
      </trkpt>
      <trkpt lat="45.7557" lon="5.68367">
        <ele>288</ele>
        <time>2020-01-15T20:59:04Z</time>
      </trkpt>
      <trkpt lat="45.75606" lon="5.68458">
        <ele>285</ele>
        <time>2020-01-15T20:59:21Z</time>
      </trkpt>
      <trkpt lat="45.7566" lon="5.68623">
        <ele>284</ele>
        <time>2020-01-15T20:59:51Z</time>
      </trkpt>
      <trkpt lat="45.75782" lon="5.68623">
        <ele>281</ele>
        <time>2020-01-15T21:00:20Z</time>
      </trkpt>
      <trkpt lat="45.75824" lon="5.68626">
        <ele>281</ele>
        <time>2020-01-15T21:00:29Z</time>
      </trkpt>
      <trkpt lat="45.75819" lon="5.68693">
        <ele>280</ele>
        <time>2020-01-15T21:00:40Z</time>
      </trkpt>
      <trkpt lat="45.75806" lon="5.68778">
        <ele>279</ele>
        <time>2020-01-15T21:00:55Z</time>
      </trkpt>
      <trkpt lat="45.75787" lon="5.68834">
        <ele>279</ele>
        <time>2020-01-15T21:01:05Z</time>
      </trkpt>
      <trkpt lat="45.75774" lon="5.68863">
        <ele>280</ele>
        <time>2020-01-15T21:01:10Z</time>
      </trkpt>
      <trkpt lat="45.75781" lon="5.68883">
        <ele>280</ele>
        <time>2020-01-15T21:01:14Z</time>
      </trkpt>
      <trkpt lat="45.75777" lon="5.68902">
        <ele>280</ele>
        <time>2020-01-15T21:01:17Z</time>
      </trkpt>
      <trkpt lat="45.75799" lon="5.68908">
        <ele>280</ele>
        <time>2020-01-15T21:01:22Z</time>
      </trkpt>
      <trkpt lat="45.75813" lon="5.68909">
        <ele>280</ele>
        <time>2020-01-15T21:01:26Z</time>
      </trkpt>
      <trkpt lat="45.75801" lon="5.68932">
        <ele>281</ele>
        <time>2020-01-15T21:01:30Z</time>
      </trkpt>
    </trkseg>
  </trk>
</gpx>